﻿<?xml version="1.0" encoding="utf-8"?><gpx creator="Garmin Desktop App" version="1.1" xsi:schemaLocation="http://www.topografix.com/GPX/1/1 http://www.topografix.com/GPX/1/1/gpx.xsd http://www.garmin.com/xmlschemas/WaypointExtension/v1 http://www8.garmin.com/xmlschemas/WaypointExtensionv1.xsd http://www.garmin.com/xmlschemas/TrackPointExtension/v1 http://www.garmin.com/xmlschemas/TrackPointExtensionv1.xsd http://www.garmin.com/xmlschemas/GpxExtensions/v3 http://www8.garmin.com/xmlschemas/GpxExtensionsv3.xsd http://www.garmin.com/xmlschemas/ActivityExtension/v1 http://www8.garmin.com/xmlschemas/ActivityExtensionv1.xsd http://www.garmin.com/xmlschemas/AdventuresExtensions/v1 http://www8.garmin.com/xmlschemas/AdventuresExtensionv1.xsd http://www.garmin.com/xmlschemas/PressureExtension/v1 http://www.garmin.com/xmlschemas/PressureExtensionv1.xsd http://www.garmin.com/xmlschemas/TripExtensions/v1 http://www.garmin.com/xmlschemas/TripExtensionsv1.xsd http://www.garmin.com/xmlschemas/TripMetaDataExtensions/v1 http://www.garmin.com/xmlschemas/TripMetaDataExtensionsv1.xsd http://www.garmin.com/xmlschemas/ViaPointTransportationModeExtensions/v1 http://www.garmin.com/xmlschemas/ViaPointTransportationModeExtensionsv1.xsd http://www.garmin.com/xmlschemas/CreationTimeExtension/v1 http://www.garmin.com/xmlschemas/CreationTimeExtensionsv1.xsd http://www.garmin.com/xmlschemas/AccelerationExtension/v1 http://www.garmin.com/xmlschemas/AccelerationExtensionv1.xsd http://www.garmin.com/xmlschemas/PowerExtension/v1 http://www.garmin.com/xmlschemas/PowerExtensionv1.xsd http://www.garmin.com/xmlschemas/VideoExtension/v1 http://www.garmin.com/xmlschemas/VideoExtensionv1.xsd" xmlns="http://www.topografix.com/GPX/1/1" xmlns:xsi="http://www.w3.org/2001/XMLSchema-instance" xmlns:wptx1="http://www.garmin.com/xmlschemas/WaypointExtension/v1" xmlns:gpxtrx="http://www.garmin.com/xmlschemas/GpxExtensions/v3" xmlns:gpxtpx="http://www.garmin.com/xmlschemas/TrackPointExtension/v1" xmlns:gpxx="http://www.garmin.com/xmlschemas/GpxExtensions/v3" xmlns:trp="http://www.garmin.com/xmlschemas/TripExtensions/v1" xmlns:adv="http://www.garmin.com/xmlschemas/AdventuresExtensions/v1" xmlns:prs="http://www.garmin.com/xmlschemas/PressureExtension/v1" xmlns:tmd="http://www.garmin.com/xmlschemas/TripMetaDataExtensions/v1" xmlns:vptm="http://www.garmin.com/xmlschemas/ViaPointTransportationModeExtensions/v1" xmlns:ctx="http://www.garmin.com/xmlschemas/CreationTimeExtension/v1" xmlns:gpxacc="http://www.garmin.com/xmlschemas/AccelerationExtension/v1" xmlns:gpxpx="http://www.garmin.com/xmlschemas/PowerExtension/v1" xmlns:vidx1="http://www.garmin.com/xmlschemas/VideoExtension/v1">

  <metadata>
    <link href="http://www.garmin.com">
      <text>Garmin International</text>
    </link>
    <time>2021-01-23T12:57:35Z</time>
    <bounds maxlat="46.433351207524538" maxlon="8.405771311372519" minlat="46.420482052490115" minlon="8.3507180493325" />
  </metadata>

  <trk>
    <name>rifugio somma2019-09-14</name>
    <extensions>
      <gpxx:TrackExtension>
        <gpxx:DisplayColor>Yellow</gpxx:DisplayColor>
      </gpxx:TrackExtension>
      <gpxtrkx:TrackStatsExtension xmlns:gpxtrkx="http://www.garmin.com/xmlschemas/TrackStatsExtension/v1">
        <gpxtrkx:Distance>5921</gpxtrkx:Distance>
        <gpxtrkx:TotalElapsedTime>10477</gpxtrkx:TotalElapsedTime>
        <gpxtrkx:MovingTime>8193</gpxtrkx:MovingTime>
        <gpxtrkx:StoppedTime>1997</gpxtrkx:StoppedTime>
        <gpxtrkx:MovingSpeed>1</gpxtrkx:MovingSpeed>
        <gpxtrkx:MaxSpeed>3</gpxtrkx:MaxSpeed>
        <gpxtrkx:MaxElevation>2567</gpxtrkx:MaxElevation>
        <gpxtrkx:MinElevation>1742</gpxtrkx:MinElevation>
        <gpxtrkx:Ascent>822</gpxtrkx:Ascent>
        <gpxtrkx:Descent>15</gpxtrkx:Descent>
        <gpxtrkx:AvgAscentRate>0</gpxtrkx:AvgAscentRate>
        <gpxtrkx:MaxAscentRate>0</gpxtrkx:MaxAscentRate>
        <gpxtrkx:AvgDescentRate>0</gpxtrkx:AvgDescentRate>
        <gpxtrkx:MaxDescentRate>-0</gpxtrkx:MaxDescentRate>
      </gpxtrkx:TrackStatsExtension>
    </extensions>
    <trkseg>
      <trkpt lat="46.424759002402425" lon="8.405771311372519">
        <ele>1742.9400000000001</ele>
        <time>2019-09-14T09:35:55Z</time>
      </trkpt>
      <trkpt lat="46.424763780087233" lon="8.405762510374188">
        <ele>1742.9400000000001</ele>
        <time>2019-09-14T09:35:56Z</time>
      </trkpt>
      <trkpt lat="46.424769815057516" lon="8.405754044651985">
        <ele>1742.9400000000001</ele>
        <time>2019-09-14T09:35:57Z</time>
      </trkpt>
      <trkpt lat="46.424881042912602" lon="8.405695371329784">
        <ele>1742.79</ele>
        <time>2019-09-14T09:36:09Z</time>
      </trkpt>
      <trkpt lat="46.425005597993731" lon="8.405632087960839">
        <ele>1743.3099999999999</ele>
        <time>2019-09-14T09:36:21Z</time>
      </trkpt>
      <trkpt lat="46.425083382055163" lon="8.405598811805248">
        <ele>1743.52</ele>
        <time>2019-09-14T09:36:29Z</time>
      </trkpt>
      <trkpt lat="46.425111964344978" lon="8.405356574803591">
        <ele>1743.7</ele>
        <time>2019-09-14T09:36:45Z</time>
      </trkpt>
      <trkpt lat="46.425140043720603" lon="8.405173597857356">
        <ele>1744.22</ele>
        <time>2019-09-14T09:36:58Z</time>
      </trkpt>
      <trkpt lat="46.425158986821771" lon="8.40516890399158">
        <ele>1743.95</ele>
        <time>2019-09-14T09:37:07Z</time>
      </trkpt>
      <trkpt lat="46.425206093117595" lon="8.405139734968543">
        <ele>1744.77</ele>
        <time>2019-09-14T09:37:23Z</time>
      </trkpt>
      <trkpt lat="46.425230652093887" lon="8.405099082738161">
        <ele>1745.0699999999999</ele>
        <time>2019-09-14T09:37:37Z</time>
      </trkpt>
      <trkpt lat="46.425303658470511" lon="8.404987687245011">
        <ele>1746.0999999999999</ele>
        <time>2019-09-14T09:37:50Z</time>
      </trkpt>
      <trkpt lat="46.425381023436785" lon="8.404772691428661">
        <ele>1748.6600000000001</ele>
        <time>2019-09-14T09:38:09Z</time>
      </trkpt>
      <trkpt lat="46.425397954881191" lon="8.404741678386927">
        <ele>1749.0899999999999</ele>
        <time>2019-09-14T09:38:12Z</time>
      </trkpt>
      <trkpt lat="46.425492251291871" lon="8.404668252915144">
        <ele>1750.3800000000001</ele>
        <time>2019-09-14T09:38:25Z</time>
      </trkpt>
      <trkpt lat="46.425560815259814" lon="8.404589798301458">
        <ele>1753.04</ele>
        <time>2019-09-14T09:38:39Z</time>
      </trkpt>
      <trkpt lat="46.425622925162315" lon="8.404456106945872">
        <ele>1755.3599999999999</ele>
        <time>2019-09-14T09:38:55Z</time>
      </trkpt>
      <trkpt lat="46.425672126933932" lon="8.404356446117163">
        <ele>1757.1600000000001</ele>
        <time>2019-09-14T09:39:08Z</time>
      </trkpt>
      <trkpt lat="46.425726609304547" lon="8.404300455003977">
        <ele>1759.6500000000001</ele>
        <time>2019-09-14T09:39:22Z</time>
      </trkpt>
      <trkpt lat="46.425761561840773" lon="8.404232645407319">
        <ele>1761.8900000000001</ele>
        <time>2019-09-14T09:39:34Z</time>
      </trkpt>
      <trkpt lat="46.42582886852324" lon="8.404063666239381">
        <ele>1762.8699999999999</ele>
        <time>2019-09-14T09:39:48Z</time>
      </trkpt>
      <trkpt lat="46.425795089453459" lon="8.403871888294816">
        <ele>1763.6400000000001</ele>
        <time>2019-09-14T09:40:03Z</time>
      </trkpt>
      <trkpt lat="46.425777487456799" lon="8.40374599210918">
        <ele>1766.0599999999999</ele>
        <time>2019-09-14T09:40:18Z</time>
      </trkpt>
      <trkpt lat="46.425775391981006" lon="8.40358866378665">
        <ele>1767.3199999999999</ele>
        <time>2019-09-14T09:40:32Z</time>
      </trkpt>
      <trkpt lat="46.425775643438101" lon="8.403427228331566">
        <ele>1768.49</ele>
        <time>2019-09-14T09:40:46Z</time>
      </trkpt>
      <trkpt lat="46.42577170394361" lon="8.403231259435415">
        <ele>1770.71</ele>
        <time>2019-09-14T09:41:03Z</time>
      </trkpt>
      <trkpt lat="46.42576776444912" lon="8.403073344379664">
        <ele>1772.3900000000001</ele>
        <time>2019-09-14T09:41:17Z</time>
      </trkpt>
      <trkpt lat="46.425772625952959" lon="8.402912747114897">
        <ele>1774.4400000000001</ele>
        <time>2019-09-14T09:41:32Z</time>
      </trkpt>
      <trkpt lat="46.425767345353961" lon="8.402753910049796">
        <ele>1776.2</ele>
        <time>2019-09-14T09:41:46Z</time>
      </trkpt>
      <trkpt lat="46.425747144967318" lon="8.402574956417084">
        <ele>1778.1400000000001</ele>
        <time>2019-09-14T09:42:02Z</time>
      </trkpt>
      <trkpt lat="46.425781762227416" lon="8.402389464899898">
        <ele>1779.8299999999999</ele>
        <time>2019-09-14T09:42:18Z</time>
      </trkpt>
      <trkpt lat="46.425819229334593" lon="8.402238758280873">
        <ele>1781.96</ele>
        <time>2019-09-14T09:42:32Z</time>
      </trkpt>
      <trkpt lat="46.425854684785008" lon="8.40210473164916">
        <ele>1783.6199999999999</ele>
        <time>2019-09-14T09:42:46Z</time>
      </trkpt>
      <trkpt lat="46.425893576815724" lon="8.402033401653171">
        <ele>1785.23</ele>
        <time>2019-09-14T09:42:56Z</time>
      </trkpt>
      <trkpt lat="46.425981922075152" lon="8.401928208768368">
        <ele>1786.52</ele>
        <time>2019-09-14T09:43:11Z</time>
      </trkpt>
      <trkpt lat="46.426047384738922" lon="8.40182519517839">
        <ele>1788.9300000000001</ele>
        <time>2019-09-14T09:43:26Z</time>
      </trkpt>
      <trkpt lat="46.426088456064463" lon="8.401725115254521">
        <ele>1791.54</ele>
        <time>2019-09-14T09:43:41Z</time>
      </trkpt>
      <trkpt lat="46.426133634522557" lon="8.401636518537998">
        <ele>1794.1199999999999</ele>
        <time>2019-09-14T09:43:57Z</time>
      </trkpt>
      <trkpt lat="46.426168167963624" lon="8.401566864922643">
        <ele>1796.71</ele>
        <time>2019-09-14T09:44:12Z</time>
      </trkpt>
      <trkpt lat="46.426252322271466" lon="8.401462426409125">
        <ele>1799.05</ele>
        <time>2019-09-14T09:44:26Z</time>
      </trkpt>
      <trkpt lat="46.426320467144251" lon="8.401365699246526">
        <ele>1800.49</ele>
        <time>2019-09-14T09:44:39Z</time>
      </trkpt>
      <trkpt lat="46.426394395530224" lon="8.40130040422082">
        <ele>1802.8399999999999</ele>
        <time>2019-09-14T09:44:53Z</time>
      </trkpt>
      <trkpt lat="46.426469497382641" lon="8.401265870779753">
        <ele>1805.5799999999999</ele>
        <time>2019-09-14T09:45:08Z</time>
      </trkpt>
      <trkpt lat="46.426478885114193" lon="8.401266457512975">
        <ele>1805.6099999999999</ele>
        <time>2019-09-14T09:45:09Z</time>
      </trkpt>
      <trkpt lat="46.42657988704741" lon="8.401216752827168">
        <ele>1807.1800000000001</ele>
        <time>2019-09-14T09:45:23Z</time>
      </trkpt>
      <trkpt lat="46.426622802391648" lon="8.401113990694284">
        <ele>1809.54</ele>
        <time>2019-09-14T09:45:38Z</time>
      </trkpt>
      <trkpt lat="46.426656916737556" lon="8.401083229109645">
        <ele>1811.9100000000001</ele>
        <time>2019-09-14T09:45:53Z</time>
      </trkpt>
      <trkpt lat="46.426707543432713" lon="8.401077948510647">
        <ele>1813.71</ele>
        <time>2019-09-14T09:46:08Z</time>
      </trkpt>
      <trkpt lat="46.42673964612186" lon="8.401024052873254">
        <ele>1814.48</ele>
        <time>2019-09-14T09:46:18Z</time>
      </trkpt>
      <trkpt lat="46.426770240068436" lon="8.400970827788115">
        <ele>1814.8199999999999</ele>
        <time>2019-09-14T09:46:27Z</time>
      </trkpt>
      <trkpt lat="46.426814831793308" lon="8.400886422023177">
        <ele>1815.4200000000001</ele>
        <time>2019-09-14T09:46:36Z</time>
      </trkpt>
      <trkpt lat="46.426832517609" lon="8.40082447975874">
        <ele>1815.8900000000001</ele>
        <time>2019-09-14T09:46:41Z</time>
      </trkpt>
      <trkpt lat="46.42674408853054" lon="8.400600515305996">
        <ele>1815.9000000000001</ele>
        <time>2019-09-14T09:46:58Z</time>
      </trkpt>
      <trkpt lat="46.42663948237896" lon="8.400377053767443">
        <ele>1815.6099999999999</ele>
        <time>2019-09-14T09:47:16Z</time>
      </trkpt>
      <trkpt lat="46.426521381363273" lon="8.400148060172796">
        <ele>1815.4000000000001</ele>
        <time>2019-09-14T09:47:34Z</time>
      </trkpt>
      <trkpt lat="46.42635265365243" lon="8.399927783757448">
        <ele>1815.5899999999999</ele>
        <time>2019-09-14T09:47:54Z</time>
      </trkpt>
      <trkpt lat="46.426285011693835" lon="8.399842707440257">
        <ele>1815.8499999999999</ele>
        <time>2019-09-14T09:48:02Z</time>
      </trkpt>
      <trkpt lat="46.426270846277475" lon="8.399780597537756">
        <ele>1815.8800000000001</ele>
        <time>2019-09-14T09:48:08Z</time>
      </trkpt>
      <trkpt lat="46.426327843219042" lon="8.399683786556125">
        <ele>1816.1600000000001</ele>
        <time>2019-09-14T09:48:16Z</time>
      </trkpt>
      <trkpt lat="46.426455415785313" lon="8.399471640586853">
        <ele>1816.53</ele>
        <time>2019-09-14T09:48:33Z</time>
      </trkpt>
      <trkpt lat="46.426529344171286" lon="8.3992706425488">
        <ele>1816.95</ele>
        <time>2019-09-14T09:48:47Z</time>
      </trkpt>
      <trkpt lat="46.426578210666776" lon="8.399082133546472">
        <ele>1817.3</ele>
        <time>2019-09-14T09:49:00Z</time>
      </trkpt>
      <trkpt lat="46.42659354954958" lon="8.399012982845306">
        <ele>1817.4400000000001</ele>
        <time>2019-09-14T09:49:04Z</time>
      </trkpt>
      <trkpt lat="46.426611067727208" lon="8.398795304819942">
        <ele>1817.3499999999999</ele>
        <time>2019-09-14T09:49:18Z</time>
      </trkpt>
      <trkpt lat="46.426604362204671" lon="8.398731853812933">
        <ele>1817.47</ele>
        <time>2019-09-14T09:49:22Z</time>
      </trkpt>
      <trkpt lat="46.426526745781302" lon="8.398470589891076">
        <ele>1817.22</ele>
        <time>2019-09-14T09:49:39Z</time>
      </trkpt>
      <trkpt lat="46.426532277837396" lon="8.39824159629643">
        <ele>1817.3800000000001</ele>
        <time>2019-09-14T09:49:53Z</time>
      </trkpt>
      <trkpt lat="46.426566392183304" lon="8.39797530323267">
        <ele>1817.3800000000001</ele>
        <time>2019-09-14T09:50:09Z</time>
      </trkpt>
      <trkpt lat="46.426597656682134" lon="8.397686965763569">
        <ele>1817.45</ele>
        <time>2019-09-14T09:50:26Z</time>
      </trkpt>
      <trkpt lat="46.426600590348244" lon="8.397415224462748">
        <ele>1817.8</ele>
        <time>2019-09-14T09:50:42Z</time>
      </trkpt>
      <trkpt lat="46.426633782684803" lon="8.397165946662426">
        <ele>1817.46</ele>
        <time>2019-09-14T09:50:57Z</time>
      </trkpt>
      <trkpt lat="46.426677284762263" lon="8.396917507052422">
        <ele>1817.8800000000001</ele>
        <time>2019-09-14T09:51:12Z</time>
      </trkpt>
      <trkpt lat="46.426735958084464" lon="8.396633444353938">
        <ele>1817.96</ele>
        <time>2019-09-14T09:51:29Z</time>
      </trkpt>
      <trkpt lat="46.426851712167263" lon="8.396402858197689">
        <ele>1817.54</ele>
        <time>2019-09-14T09:51:45Z</time>
      </trkpt>
      <trkpt lat="46.426974171772599" lon="8.39617763645947">
        <ele>1817.6300000000001</ele>
        <time>2019-09-14T09:52:02Z</time>
      </trkpt>
      <trkpt lat="46.426995042711496" lon="8.396076634526253">
        <ele>1817.72</ele>
        <time>2019-09-14T09:52:14Z</time>
      </trkpt>
      <trkpt lat="46.426996802911162" lon="8.396084681153297">
        <ele>1817.74</ele>
        <time>2019-09-14T09:52:17Z</time>
      </trkpt>
      <trkpt lat="46.427034186199307" lon="8.396043861284852">
        <ele>1817.6199999999999</ele>
        <time>2019-09-14T09:52:21Z</time>
      </trkpt>
      <trkpt lat="46.427167626097798" lon="8.395786453038454">
        <ele>1818.05</ele>
        <time>2019-09-14T09:52:38Z</time>
      </trkpt>
      <trkpt lat="46.427289750427008" lon="8.395502557978034">
        <ele>1817.9000000000001</ele>
        <time>2019-09-14T09:52:55Z</time>
      </trkpt>
      <trkpt lat="46.427410030737519" lon="8.395244982093573">
        <ele>1818.0799999999999</ele>
        <time>2019-09-14T09:53:11Z</time>
      </trkpt>
      <trkpt lat="46.427522096782923" lon="8.395047252997756">
        <ele>1818.3599999999999</ele>
        <time>2019-09-14T09:53:25Z</time>
      </trkpt>
      <trkpt lat="46.427535256370902" lon="8.395018670707941">
        <ele>1818.3199999999999</ele>
        <time>2019-09-14T09:53:27Z</time>
      </trkpt>
      <trkpt lat="46.427580853924155" lon="8.39491649530828">
        <ele>1818.3599999999999</ele>
        <time>2019-09-14T09:53:34Z</time>
      </trkpt>
      <trkpt lat="46.427683951333165" lon="8.394682472571731">
        <ele>1818.7</ele>
        <time>2019-09-14T09:53:50Z</time>
      </trkpt>
      <trkpt lat="46.427730470895767" lon="8.394580045714974">
        <ele>1818.75</ele>
        <time>2019-09-14T09:53:57Z</time>
      </trkpt>
      <trkpt lat="46.427766932174563" lon="8.394488599151373">
        <ele>1819.0799999999999</ele>
        <time>2019-09-14T09:54:03Z</time>
      </trkpt>
      <trkpt lat="46.42785276286304" lon="8.394255163148046">
        <ele>1819.3399999999999</ele>
        <time>2019-09-14T09:54:19Z</time>
      </trkpt>
      <trkpt lat="46.427949322387576" lon="8.393981326371431">
        <ele>1819.9400000000001</ele>
        <time>2019-09-14T09:54:37Z</time>
      </trkpt>
      <trkpt lat="46.428068764507771" lon="8.393778149038553">
        <ele>1820.3900000000001</ele>
        <time>2019-09-14T09:54:53Z</time>
      </trkpt>
      <trkpt lat="46.428186614066362" lon="8.39354638941586">
        <ele>1820.77</ele>
        <time>2019-09-14T09:55:10Z</time>
      </trkpt>
      <trkpt lat="46.428313599899411" lon="8.393299542367458">
        <ele>1820.95</ele>
        <time>2019-09-14T09:55:28Z</time>
      </trkpt>
      <trkpt lat="46.428384929895401" lon="8.393145063892007">
        <ele>1821.1400000000001</ele>
        <time>2019-09-14T09:55:41Z</time>
      </trkpt>
      <trkpt lat="46.428422899916768" lon="8.393085636198521">
        <ele>1821.29</ele>
        <time>2019-09-14T09:55:47Z</time>
      </trkpt>
      <trkpt lat="46.428529182448983" lon="8.392907772213221">
        <ele>1821.8699999999999</ele>
        <time>2019-09-14T09:56:03Z</time>
      </trkpt>
      <trkpt lat="46.428642170503736" lon="8.392771733924747">
        <ele>1822.27</ele>
        <time>2019-09-14T09:56:17Z</time>
      </trkpt>
      <trkpt lat="46.428781561553478" lon="8.392657320946455">
        <ele>1822.8399999999999</ele>
        <time>2019-09-14T09:56:32Z</time>
      </trkpt>
      <trkpt lat="46.428930424153805" lon="8.392571322619915">
        <ele>1823.8399999999999</ele>
        <time>2019-09-14T09:56:48Z</time>
      </trkpt>
      <trkpt lat="46.429081214591861" lon="8.392490688711405">
        <ele>1824.3399999999999</ele>
        <time>2019-09-14T09:57:03Z</time>
      </trkpt>
      <trkpt lat="46.429162099957466" lon="8.392458502203226">
        <ele>1824.6199999999999</ele>
        <time>2019-09-14T09:57:15Z</time>
      </trkpt>
      <trkpt lat="46.429193615913391" lon="8.392442995682359">
        <ele>1824.9000000000001</ele>
        <time>2019-09-14T09:57:24Z</time>
      </trkpt>
      <trkpt lat="46.42931423150003" lon="8.392317099496722">
        <ele>1825.1900000000001</ele>
        <time>2019-09-14T09:57:39Z</time>
      </trkpt>
      <trkpt lat="46.429423615336418" lon="8.392175612971187">
        <ele>1825.8800000000001</ele>
        <time>2019-09-14T09:57:52Z</time>
      </trkpt>
      <trkpt lat="46.429552529007196" lon="8.391974363476038">
        <ele>1826.71</ele>
        <time>2019-09-14T09:58:09Z</time>
      </trkpt>
      <trkpt lat="46.429671216756105" lon="8.391795912757516">
        <ele>1827.3900000000001</ele>
        <time>2019-09-14T09:58:25Z</time>
      </trkpt>
      <trkpt lat="46.42980876378715" lon="8.391660880297422">
        <ele>1828.02</ele>
        <time>2019-09-14T09:58:40Z</time>
      </trkpt>
      <trkpt lat="46.429924517869949" lon="8.39154252782464">
        <ele>1828.6099999999999</ele>
        <time>2019-09-14T09:58:53Z</time>
      </trkpt>
      <trkpt lat="46.430063238367438" lon="8.391372710466385">
        <ele>1829.23</ele>
        <time>2019-09-14T09:59:09Z</time>
      </trkpt>
      <trkpt lat="46.430192403495312" lon="8.391179172322154">
        <ele>1829.9400000000001</ele>
        <time>2019-09-14T09:59:26Z</time>
      </trkpt>
      <trkpt lat="46.430297428742051" lon="8.391017820686102">
        <ele>1830.6600000000001</ele>
        <time>2019-09-14T09:59:41Z</time>
      </trkpt>
      <trkpt lat="46.430430365726352" lon="8.390853619202972">
        <ele>1831.24</ele>
        <time>2019-09-14T09:59:56Z</time>
      </trkpt>
      <trkpt lat="46.430544443428516" lon="8.390715820714831">
        <ele>1832.1199999999999</ele>
        <time>2019-09-14T10:00:10Z</time>
      </trkpt>
      <trkpt lat="46.430665561929345" lon="8.390568718314171">
        <ele>1832.7</ele>
        <time>2019-09-14T10:00:24Z</time>
      </trkpt>
      <trkpt lat="46.430783830583096" lon="8.390403678640723">
        <ele>1833.4100000000001</ele>
        <time>2019-09-14T10:00:39Z</time>
      </trkpt>
      <trkpt lat="46.430895058438182" lon="8.390263700857759">
        <ele>1834.5799999999999</ele>
        <time>2019-09-14T10:00:53Z</time>
      </trkpt>
      <trkpt lat="46.431030007079244" lon="8.390105701982975">
        <ele>1835.5599999999999</ele>
        <time>2019-09-14T10:01:09Z</time>
      </trkpt>
      <trkpt lat="46.431141067296267" lon="8.389921300113201">
        <ele>1836.55</ele>
        <time>2019-09-14T10:01:25Z</time>
      </trkpt>
      <trkpt lat="46.431228071451187" lon="8.389741089195013">
        <ele>1837.26</ele>
        <time>2019-09-14T10:01:39Z</time>
      </trkpt>
      <trkpt lat="46.431329995393753" lon="8.389561884105206">
        <ele>1837.8900000000001</ele>
        <time>2019-09-14T10:01:54Z</time>
      </trkpt>
      <trkpt lat="46.431421525776386" lon="8.389369519427419">
        <ele>1838.5</ele>
        <time>2019-09-14T10:02:09Z</time>
      </trkpt>
      <trkpt lat="46.431512972339988" lon="8.389204563573003">
        <ele>1839.0599999999999</ele>
        <time>2019-09-14T10:02:23Z</time>
      </trkpt>
      <trkpt lat="46.431599222123623" lon="8.38903876952827">
        <ele>1839.95</ele>
        <time>2019-09-14T10:02:37Z</time>
      </trkpt>
      <trkpt lat="46.431626128032804" lon="8.388973474502564">
        <ele>1840.0699999999999</ele>
        <time>2019-09-14T10:02:47Z</time>
      </trkpt>
      <trkpt lat="46.431597042828798" lon="8.388943634927273">
        <ele>1840.1199999999999</ele>
        <time>2019-09-14T10:02:57Z</time>
      </trkpt>
      <trkpt lat="46.431655799970031" lon="8.388841291889548">
        <ele>1840.52</ele>
        <time>2019-09-14T10:03:09Z</time>
      </trkpt>
      <trkpt lat="46.431760741397738" lon="8.388664769008756">
        <ele>1841.22</ele>
        <time>2019-09-14T10:03:24Z</time>
      </trkpt>
      <trkpt lat="46.431844728067517" lon="8.388470476493239">
        <ele>1841.54</ele>
        <time>2019-09-14T10:03:39Z</time>
      </trkpt>
      <trkpt lat="46.431950591504574" lon="8.388240644708276">
        <ele>1842.3399999999999</ele>
        <time>2019-09-14T10:03:57Z</time>
      </trkpt>
      <trkpt lat="46.432059640064836" lon="8.38806688785553">
        <ele>1842.72</ele>
        <time>2019-09-14T10:04:12Z</time>
      </trkpt>
      <trkpt lat="46.432180842384696" lon="8.387914253398776">
        <ele>1843.0599999999999</ele>
        <time>2019-09-14T10:04:27Z</time>
      </trkpt>
      <trkpt lat="46.432281844317913" lon="8.38777469471097">
        <ele>1843.6300000000001</ele>
        <time>2019-09-14T10:04:40Z</time>
      </trkpt>
      <trkpt lat="46.432354180142283" lon="8.3875831682235">
        <ele>1843.95</ele>
        <time>2019-09-14T10:04:54Z</time>
      </trkpt>
      <trkpt lat="46.432423666119576" lon="8.387334896251559">
        <ele>1841.8900000000001</ele>
        <time>2019-09-14T10:05:09Z</time>
      </trkpt>
      <trkpt lat="46.432453505694866" lon="8.387104980647564">
        <ele>1840.74</ele>
        <time>2019-09-14T10:05:22Z</time>
      </trkpt>
      <trkpt lat="46.432486111298203" lon="8.386803818866611">
        <ele>1840.1400000000001</ele>
        <time>2019-09-14T10:05:40Z</time>
      </trkpt>
      <trkpt lat="46.432565404102206" lon="8.386578764766455">
        <ele>1839.1900000000001</ele>
        <time>2019-09-14T10:05:55Z</time>
      </trkpt>
      <trkpt lat="46.432608403265476" lon="8.386392518877983">
        <ele>1836.48</ele>
        <time>2019-09-14T10:06:07Z</time>
      </trkpt>
      <trkpt lat="46.432660203427076" lon="8.386163944378495">
        <ele>1834.45</ele>
        <time>2019-09-14T10:06:21Z</time>
      </trkpt>
      <trkpt lat="46.432705298066139" lon="8.385915588587523">
        <ele>1832.8699999999999</ele>
        <time>2019-09-14T10:06:36Z</time>
      </trkpt>
      <trkpt lat="46.432726001366973" lon="8.385854568332434">
        <ele>1832.76</ele>
        <time>2019-09-14T10:06:40Z</time>
      </trkpt>
      <trkpt lat="46.432830858975649" lon="8.385593136772513">
        <ele>1829.97</ele>
        <time>2019-09-14T10:06:59Z</time>
      </trkpt>
      <trkpt lat="46.432873103767633" lon="8.38555290363729">
        <ele>1829.1099999999999</ele>
        <time>2019-09-14T10:07:11Z</time>
      </trkpt>
      <trkpt lat="46.432882156223059" lon="8.385541336610913">
        <ele>1829.01</ele>
        <time>2019-09-14T10:07:15Z</time>
      </trkpt>
      <trkpt lat="46.432916857302189" lon="8.385470425710082">
        <ele>1828.8399999999999</ele>
        <time>2019-09-14T10:07:22Z</time>
      </trkpt>
      <trkpt lat="46.432997910305858" lon="8.385256351903081">
        <ele>1829.2</ele>
        <time>2019-09-14T10:07:38Z</time>
      </trkpt>
      <trkpt lat="46.432957928627729" lon="8.385098017752171">
        <ele>1828.6900000000001</ele>
        <time>2019-09-14T10:07:49Z</time>
      </trkpt>
      <trkpt lat="46.432946110144258" lon="8.385011935606599">
        <ele>1829.78</ele>
        <time>2019-09-14T10:08:02Z</time>
      </trkpt>
      <trkpt lat="46.432935632765293" lon="8.384984862059355">
        <ele>1829.28</ele>
        <time>2019-09-14T10:08:15Z</time>
      </trkpt>
      <trkpt lat="46.432973518967628" lon="8.384877573698759">
        <ele>1830.6199999999999</ele>
        <time>2019-09-14T10:08:28Z</time>
      </trkpt>
      <trkpt lat="46.433016937226057" lon="8.384832479059696">
        <ele>1831.04</ele>
        <time>2019-09-14T10:08:34Z</time>
      </trkpt>
      <trkpt lat="46.433120621368289" lon="8.384713623672724">
        <ele>1832.4200000000001</ele>
        <time>2019-09-14T10:08:48Z</time>
      </trkpt>
      <trkpt lat="46.433171834796667" lon="8.384626703336835">
        <ele>1832.98</ele>
        <time>2019-09-14T10:08:59Z</time>
      </trkpt>
      <trkpt lat="46.433184575289488" lon="8.384584374725819">
        <ele>1832.6800000000001</ele>
        <time>2019-09-14T10:09:02Z</time>
      </trkpt>
      <trkpt lat="46.433195136487484" lon="8.384529892355204">
        <ele>1832.8800000000001</ele>
        <time>2019-09-14T10:09:06Z</time>
      </trkpt>
      <trkpt lat="46.433233274146914" lon="8.384417742490768">
        <ele>1833.55</ele>
        <time>2019-09-14T10:09:15Z</time>
      </trkpt>
      <trkpt lat="46.433236123993993" lon="8.38428195565939">
        <ele>1834.0699999999999</ele>
        <time>2019-09-14T10:09:28Z</time>
      </trkpt>
      <trkpt lat="46.433172589167953" lon="8.384200567379594">
        <ele>1835.55</ele>
        <time>2019-09-14T10:09:40Z</time>
      </trkpt>
      <trkpt lat="46.433172672986984" lon="8.384116748347879">
        <ele>1837.0799999999999</ele>
        <time>2019-09-14T10:09:52Z</time>
      </trkpt>
      <trkpt lat="46.433189688250422" lon="8.384083556011319">
        <ele>1837.1600000000001</ele>
        <time>2019-09-14T10:10:03Z</time>
      </trkpt>
      <trkpt lat="46.433244757354259" lon="8.383926311507821">
        <ele>1837.8800000000001</ele>
        <time>2019-09-14T10:10:17Z</time>
      </trkpt>
      <trkpt lat="46.433270070701838" lon="8.383822459727526">
        <ele>1839.6500000000001</ele>
        <time>2019-09-14T10:10:29Z</time>
      </trkpt>
      <trkpt lat="46.433261688798666" lon="8.383809803053737">
        <ele>1840.3</ele>
        <time>2019-09-14T10:10:45Z</time>
      </trkpt>
      <trkpt lat="46.433273507282138" lon="8.38377476669848">
        <ele>1840.0599999999999</ele>
        <time>2019-09-14T10:10:58Z</time>
      </trkpt>
      <trkpt lat="46.433316422626376" lon="8.383628334850073">
        <ele>1840.25</ele>
        <time>2019-09-14T10:11:10Z</time>
      </trkpt>
      <trkpt lat="46.433311393484473" lon="8.383591622114182">
        <ele>1840.3900000000001</ele>
        <time>2019-09-14T10:11:13Z</time>
      </trkpt>
      <trkpt lat="46.433298150077462" lon="8.383391378447413">
        <ele>1841.6500000000001</ele>
        <time>2019-09-14T10:11:27Z</time>
      </trkpt>
      <trkpt lat="46.433291444554925" lon="8.383241761475802">
        <ele>1842.5799999999999</ele>
        <time>2019-09-14T10:11:37Z</time>
      </trkpt>
      <trkpt lat="46.433311393484473" lon="8.383100861683488">
        <ele>1843.51</ele>
        <time>2019-09-14T10:11:48Z</time>
      </trkpt>
      <trkpt lat="46.433316674083471" lon="8.38295878842473">
        <ele>1843.9000000000001</ele>
        <time>2019-09-14T10:11:59Z</time>
      </trkpt>
      <trkpt lat="46.433321116492152" lon="8.382773548364639">
        <ele>1845.03</ele>
        <time>2019-09-14T10:12:12Z</time>
      </trkpt>
      <trkpt lat="46.433325307443738" lon="8.382631475105882">
        <ele>1845.97</ele>
        <time>2019-09-14T10:12:23Z</time>
      </trkpt>
      <trkpt lat="46.43333469517529" lon="8.382515553385019">
        <ele>1846.6400000000001</ele>
        <time>2019-09-14T10:12:38Z</time>
      </trkpt>
      <trkpt lat="46.433335365727544" lon="8.382497280836105">
        <ele>1846.71</ele>
        <time>2019-09-14T10:12:50Z</time>
      </trkpt>
      <trkpt lat="46.433351207524538" lon="8.382358560338616">
        <ele>1848.3199999999999</ele>
        <time>2019-09-14T10:13:02Z</time>
      </trkpt>
      <trkpt lat="46.433332096785307" lon="8.382205674424768">
        <ele>1849.8399999999999</ele>
        <time>2019-09-14T10:13:17Z</time>
      </trkpt>
      <trkpt lat="46.433250457048416" lon="8.382073659449816">
        <ele>1851.76</ele>
        <time>2019-09-14T10:13:33Z</time>
      </trkpt>
      <trkpt lat="46.433221120387316" lon="8.381961593404412">
        <ele>1853.3</ele>
        <time>2019-09-14T10:13:47Z</time>
      </trkpt>
      <trkpt lat="46.433218689635396" lon="8.381813568994403">
        <ele>1854.5699999999999</ele>
        <time>2019-09-14T10:13:59Z</time>
      </trkpt>
      <trkpt lat="46.433225646615028" lon="8.381698401644826">
        <ele>1856.0699999999999</ele>
        <time>2019-09-14T10:14:10Z</time>
      </trkpt>
      <trkpt lat="46.433231933042407" lon="8.381621036678553">
        <ele>1858.99</ele>
        <time>2019-09-14T10:14:23Z</time>
      </trkpt>
      <trkpt lat="46.433235453441739" lon="8.381570242345333">
        <ele>1860.9400000000001</ele>
        <time>2019-09-14T10:14:37Z</time>
      </trkpt>
      <trkpt lat="46.433226568624377" lon="8.381506875157356">
        <ele>1863.0699999999999</ele>
        <time>2019-09-14T10:14:49Z</time>
      </trkpt>
      <trkpt lat="46.433193208649755" lon="8.381479382514954">
        <ele>1864.9300000000001</ele>
        <time>2019-09-14T10:15:01Z</time>
      </trkpt>
      <trkpt lat="46.433209385722876" lon="8.38142640888691">
        <ele>1866.8</ele>
        <time>2019-09-14T10:15:12Z</time>
      </trkpt>
      <trkpt lat="46.433202428743243" lon="8.381362957879901">
        <ele>1868.6800000000001</ele>
        <time>2019-09-14T10:15:25Z</time>
      </trkpt>
      <trkpt lat="46.433159429579973" lon="8.381299925968051">
        <ele>1870.5599999999999</ele>
        <time>2019-09-14T10:15:37Z</time>
      </trkpt>
      <trkpt lat="46.433111065998673" lon="8.381217531859875">
        <ele>1872.3900000000001</ele>
        <time>2019-09-14T10:15:50Z</time>
      </trkpt>
      <trkpt lat="46.43309379927814" lon="8.381149638444185">
        <ele>1874.05</ele>
        <time>2019-09-14T10:16:02Z</time>
      </trkpt>
      <trkpt lat="46.433074939996004" lon="8.381101610139012">
        <ele>1876.0799999999999</ele>
        <time>2019-09-14T10:16:14Z</time>
      </trkpt>
      <trkpt lat="46.433031605556607" lon="8.381030447781086">
        <ele>1877.72</ele>
        <time>2019-09-14T10:16:27Z</time>
      </trkpt>
      <trkpt lat="46.433005789294839" lon="8.380981329828501">
        <ele>1879.8099999999999</ele>
        <time>2019-09-14T10:16:41Z</time>
      </trkpt>
      <trkpt lat="46.432987349107862" lon="8.380935816094279">
        <ele>1881.4100000000001</ele>
        <time>2019-09-14T10:16:52Z</time>
      </trkpt>
      <trkpt lat="46.432972345501184" lon="8.380884267389774">
        <ele>1883.25</ele>
        <time>2019-09-14T10:17:04Z</time>
      </trkpt>
      <trkpt lat="46.432985002174973" lon="8.380822576582432">
        <ele>1885.8</ele>
        <time>2019-09-14T10:17:18Z</time>
      </trkpt>
      <trkpt lat="46.432940158993006" lon="8.380763400346041">
        <ele>1887.8099999999999</ele>
        <time>2019-09-14T10:17:32Z</time>
      </trkpt>
      <trkpt lat="46.432919455692172" lon="8.380723334848881">
        <ele>1889.0999999999999</ele>
        <time>2019-09-14T10:17:42Z</time>
      </trkpt>
      <trkpt lat="46.432882659137249" lon="8.380669103935361">
        <ele>1891.52</ele>
        <time>2019-09-14T10:17:56Z</time>
      </trkpt>
      <trkpt lat="46.432838654145598" lon="8.380655022338033">
        <ele>1893.52</ele>
        <time>2019-09-14T10:18:11Z</time>
      </trkpt>
      <trkpt lat="46.432813508436084" lon="8.380592660978437">
        <ele>1895.3800000000001</ele>
        <time>2019-09-14T10:18:25Z</time>
      </trkpt>
      <trkpt lat="46.432796493172646" lon="8.380584446713328">
        <ele>1896.8199999999999</ele>
        <time>2019-09-14T10:18:37Z</time>
      </trkpt>
      <trkpt lat="46.432804958894849" lon="8.38050733320415">
        <ele>1898.54</ele>
        <time>2019-09-14T10:18:50Z</time>
      </trkpt>
      <trkpt lat="46.43282750621438" lon="8.380408175289631">
        <ele>1901.45</ele>
        <time>2019-09-14T10:19:06Z</time>
      </trkpt>
      <trkpt lat="46.43282214179635" lon="8.380349166691303">
        <ele>1903.0599999999999</ele>
        <time>2019-09-14T10:19:18Z</time>
      </trkpt>
      <trkpt lat="46.432788781821728" lon="8.3803148008883">
        <ele>1905.2</ele>
        <time>2019-09-14T10:19:32Z</time>
      </trkpt>
      <trkpt lat="46.432797331362963" lon="8.380270712077618">
        <ele>1907.27</ele>
        <time>2019-09-14T10:19:46Z</time>
      </trkpt>
      <trkpt lat="46.432800432667136" lon="8.380218241363764">
        <ele>1909.3099999999999</ele>
        <time>2019-09-14T10:19:57Z</time>
      </trkpt>
      <trkpt lat="46.432835049927235" lon="8.380158981308341">
        <ele>1912.22</ele>
        <time>2019-09-14T10:20:12Z</time>
      </trkpt>
      <trkpt lat="46.432800181210041" lon="8.380102487280965">
        <ele>1914.04</ele>
        <time>2019-09-14T10:20:24Z</time>
      </trkpt>
      <trkpt lat="46.432768749073148" lon="8.380082622170448">
        <ele>1915.7</ele>
        <time>2019-09-14T10:20:36Z</time>
      </trkpt>
      <trkpt lat="46.432760450989008" lon="8.380046915262938">
        <ele>1917.7</ele>
        <time>2019-09-14T10:20:51Z</time>
      </trkpt>
      <trkpt lat="46.432749554514885" lon="8.380012884736061">
        <ele>1919.02</ele>
        <time>2019-09-14T10:21:03Z</time>
      </trkpt>
      <trkpt lat="46.43269507214427" lon="8.379943734034896">
        <ele>1921.04</ele>
        <time>2019-09-14T10:21:16Z</time>
      </trkpt>
      <trkpt lat="46.432658610865474" lon="8.379914984107018">
        <ele>1922.5799999999999</ele>
        <time>2019-09-14T10:21:27Z</time>
      </trkpt>
      <trkpt lat="46.432650480419397" lon="8.37987307459116">
        <ele>1924.5699999999999</ele>
        <time>2019-09-14T10:21:39Z</time>
      </trkpt>
      <trkpt lat="46.432656347751617" lon="8.37983401492238">
        <ele>1926.3</ele>
        <time>2019-09-14T10:21:51Z</time>
      </trkpt>
      <trkpt lat="46.432624747976661" lon="8.379819598048925">
        <ele>1928.0699999999999</ele>
        <time>2019-09-14T10:22:04Z</time>
      </trkpt>
      <trkpt lat="46.432605218142271" lon="8.379796715453267">
        <ele>1929.1300000000001</ele>
        <time>2019-09-14T10:22:14Z</time>
      </trkpt>
      <trkpt lat="46.432621479034424" lon="8.3797362819314">
        <ele>1931.95</ele>
        <time>2019-09-14T10:22:27Z</time>
      </trkpt>
      <trkpt lat="46.432610834017396" lon="8.379680961370468">
        <ele>1934.1800000000001</ele>
        <time>2019-09-14T10:22:40Z</time>
      </trkpt>
      <trkpt lat="46.432597087696195" lon="8.379600998014212">
        <ele>1936.55</ele>
        <time>2019-09-14T10:22:55Z</time>
      </trkpt>
      <trkpt lat="46.432594656944275" lon="8.379536792635918">
        <ele>1937.99</ele>
        <time>2019-09-14T10:23:10Z</time>
      </trkpt>
      <trkpt lat="46.432573450729251" lon="8.379486165940762">
        <ele>1939.6500000000001</ele>
        <time>2019-09-14T10:23:21Z</time>
      </trkpt>
      <trkpt lat="46.432592310011387" lon="8.37943134829402">
        <ele>1942.54</ele>
        <time>2019-09-14T10:23:35Z</time>
      </trkpt>
      <trkpt lat="46.432585688307881" lon="8.379378374665976">
        <ele>1944.55</ele>
        <time>2019-09-14T10:23:47Z</time>
      </trkpt>
      <trkpt lat="46.432578144595027" lon="8.379284664988518">
        <ele>1946.1700000000001</ele>
        <time>2019-09-14T10:24:01Z</time>
      </trkpt>
      <trkpt lat="46.432551741600037" lon="8.379206964746118">
        <ele>1947.8</ele>
        <time>2019-09-14T10:24:15Z</time>
      </trkpt>
      <trkpt lat="46.432552663609385" lon="8.379192631691694">
        <ele>1947.8599999999999</ele>
        <time>2019-09-14T10:24:25Z</time>
      </trkpt>
      <trkpt lat="46.432546461001039" lon="8.379178885370493">
        <ele>1947.4100000000001</ele>
        <time>2019-09-14T10:24:38Z</time>
      </trkpt>
      <trkpt lat="46.432547885924578" lon="8.379189614206553">
        <ele>1947.7</ele>
        <time>2019-09-14T10:25:06Z</time>
      </trkpt>
      <trkpt lat="46.43253967165947" lon="8.379184836521745">
        <ele>1947.6099999999999</ele>
        <time>2019-09-14T10:25:35Z</time>
      </trkpt>
      <trkpt lat="46.432536151260138" lon="8.379186093807221">
        <ele>1947.6800000000001</ele>
        <time>2019-09-14T10:25:50Z</time>
      </trkpt>
      <trkpt lat="46.432545203715563" lon="8.379183914512396">
        <ele>1948.3099999999999</ele>
        <time>2019-09-14T10:26:00Z</time>
      </trkpt>
      <trkpt lat="46.432533720508218" lon="8.379175532609224">
        <ele>1948.4000000000001</ele>
        <time>2019-09-14T10:26:16Z</time>
      </trkpt>
      <trkpt lat="46.432513101026416" lon="8.379135299474001">
        <ele>1949.3900000000001</ele>
        <time>2019-09-14T10:26:30Z</time>
      </trkpt>
      <trkpt lat="46.432462725788355" lon="8.379071429371834">
        <ele>1951.3299999999999</ele>
        <time>2019-09-14T10:26:43Z</time>
      </trkpt>
      <trkpt lat="46.432438585907221" lon="8.379040583968163">
        <ele>1952.8099999999999</ele>
        <time>2019-09-14T10:26:54Z</time>
      </trkpt>
      <trkpt lat="46.432405477389693" lon="8.378998339176178">
        <ele>1954.9200000000001</ele>
        <time>2019-09-14T10:27:06Z</time>
      </trkpt>
      <trkpt lat="46.432354850694537" lon="8.378956345841289">
        <ele>1956.9400000000001</ele>
        <time>2019-09-14T10:27:20Z</time>
      </trkpt>
      <trkpt lat="46.432371530681849" lon="8.378919800743461">
        <ele>1958.1400000000001</ele>
        <time>2019-09-14T10:27:31Z</time>
      </trkpt>
      <trkpt lat="46.432382762432098" lon="8.378894655033946">
        <ele>1959.46</ele>
        <time>2019-09-14T10:27:44Z</time>
      </trkpt>
      <trkpt lat="46.432352168485522" lon="8.378857858479023">
        <ele>1961.5799999999999</ele>
        <time>2019-09-14T10:27:58Z</time>
      </trkpt>
      <trkpt lat="46.432392317801714" lon="8.378833802416921">
        <ele>1963.05</ele>
        <time>2019-09-14T10:28:08Z</time>
      </trkpt>
      <trkpt lat="46.432375302538276" lon="8.378782505169511">
        <ele>1965.0599999999999</ele>
        <time>2019-09-14T10:28:22Z</time>
      </trkpt>
      <trkpt lat="46.432369099929929" lon="8.3787502348423">
        <ele>1967.79</ele>
        <time>2019-09-14T10:28:35Z</time>
      </trkpt>
      <trkpt lat="46.432383516803384" lon="8.378721987828612">
        <ele>1969.3499999999999</ele>
        <time>2019-09-14T10:28:48Z</time>
      </trkpt>
      <trkpt lat="46.43236180767417" lon="8.378684017807245">
        <ele>1971.0999999999999</ele>
        <time>2019-09-14T10:28:59Z</time>
      </trkpt>
      <trkpt lat="46.432351665571332" lon="8.378666331991553">
        <ele>1972.48</ele>
        <time>2019-09-14T10:29:12Z</time>
      </trkpt>
      <trkpt lat="46.432330291718245" lon="8.378632301464677">
        <ele>1974.6600000000001</ele>
        <time>2019-09-14T10:29:25Z</time>
      </trkpt>
      <trkpt lat="46.432295423001051" lon="8.378584608435631">
        <ele>1976.48</ele>
        <time>2019-09-14T10:29:39Z</time>
      </trkpt>
      <trkpt lat="46.432294081896544" lon="8.378543369472027">
        <ele>1977.8800000000001</ele>
        <time>2019-09-14T10:29:50Z</time>
      </trkpt>
      <trkpt lat="46.432284526526928" lon="8.378515541553497">
        <ele>1979.04</ele>
        <time>2019-09-14T10:30:01Z</time>
      </trkpt>
      <trkpt lat="46.432283520698547" lon="8.378479247912765">
        <ele>1980.6500000000001</ele>
        <time>2019-09-14T10:30:14Z</time>
      </trkpt>
      <trkpt lat="46.432261811569333" lon="8.378403978422284">
        <ele>1981.96</ele>
        <time>2019-09-14T10:30:26Z</time>
      </trkpt>
      <trkpt lat="46.432273127138615" lon="8.378352429717779">
        <ele>1984.3900000000001</ele>
        <time>2019-09-14T10:30:39Z</time>
      </trkpt>
      <trkpt lat="46.432304559275508" lon="8.378379503265023">
        <ele>1986.21</ele>
        <time>2019-09-14T10:30:52Z</time>
      </trkpt>
      <trkpt lat="46.432344540953636" lon="8.378359135240316">
        <ele>1987.9000000000001</ele>
        <time>2019-09-14T10:31:05Z</time>
      </trkpt>
      <trkpt lat="46.432322580367327" lon="8.37829333730042">
        <ele>1989.9000000000001</ele>
        <time>2019-09-14T10:31:18Z</time>
      </trkpt>
      <trkpt lat="46.432312102988362" lon="8.378217983990908">
        <ele>1991.45</ele>
        <time>2019-09-14T10:31:31Z</time>
      </trkpt>
      <trkpt lat="46.432297937572002" lon="8.378148665651679">
        <ele>1992.8599999999999</ele>
        <time>2019-09-14T10:31:44Z</time>
      </trkpt>
      <trkpt lat="46.432329956442118" lon="8.378166016191244">
        <ele>1994.1800000000001</ele>
        <time>2019-09-14T10:31:56Z</time>
      </trkpt>
      <trkpt lat="46.432316964492202" lon="8.378099547699094">
        <ele>1996.26</ele>
        <time>2019-09-14T10:32:07Z</time>
      </trkpt>
      <trkpt lat="46.432289220392704" lon="8.378057638183236">
        <ele>1996.74</ele>
        <time>2019-09-14T10:32:20Z</time>
      </trkpt>
      <trkpt lat="46.432242281734943" lon="8.378032324835658">
        <ele>1997.79</ele>
        <time>2019-09-14T10:32:31Z</time>
      </trkpt>
      <trkpt lat="46.432259129360318" lon="8.378006927669048">
        <ele>2000.1199999999999</ele>
        <time>2019-09-14T10:32:42Z</time>
      </trkpt>
      <trkpt lat="46.432281257584691" lon="8.377942051738501">
        <ele>2002.3800000000001</ele>
        <time>2019-09-14T10:32:55Z</time>
      </trkpt>
      <trkpt lat="46.432259129360318" lon="8.377887988463044">
        <ele>2003.9400000000001</ele>
        <time>2019-09-14T10:33:07Z</time>
      </trkpt>
      <trkpt lat="46.432225937023759" lon="8.37783794850111">
        <ele>2005.8399999999999</ele>
        <time>2019-09-14T10:33:20Z</time>
      </trkpt>
      <trkpt lat="46.432187799364328" lon="8.37779151275754">
        <ele>2007.6300000000001</ele>
        <time>2019-09-14T10:33:34Z</time>
      </trkpt>
      <trkpt lat="46.432157540693879" lon="8.377745831385255">
        <ele>2009.1700000000001</ele>
        <time>2019-09-14T10:33:46Z</time>
      </trkpt>
      <trkpt lat="46.432122671976686" lon="8.377711046487093">
        <ele>2010.8699999999999</ele>
        <time>2019-09-14T10:33:57Z</time>
      </trkpt>
      <trkpt lat="46.432102555409074" lon="8.377656564116478">
        <ele>2012.9200000000001</ele>
        <time>2019-09-14T10:34:10Z</time>
      </trkpt>
      <trkpt lat="46.432073302567005" lon="8.377623204141855">
        <ele>2013.75</ele>
        <time>2019-09-14T10:34:24Z</time>
      </trkpt>
      <trkpt lat="46.43205352127552" lon="8.377547515556216">
        <ele>2014.5599999999999</ele>
        <time>2019-09-14T10:34:37Z</time>
      </trkpt>
      <trkpt lat="46.432042121887207" lon="8.377458583563566">
        <ele>2016.5799999999999</ele>
        <time>2019-09-14T10:34:49Z</time>
      </trkpt>
      <trkpt lat="46.432041954249144" lon="8.377389265224338">
        <ele>2018.1800000000001</ele>
        <time>2019-09-14T10:35:01Z</time>
      </trkpt>
      <trkpt lat="46.432036170735955" lon="8.377330843359232">
        <ele>2019.6600000000001</ele>
        <time>2019-09-14T10:35:12Z</time>
      </trkpt>
      <trkpt lat="46.43203248269856" lon="8.377277869731188">
        <ele>2020.4100000000001</ele>
        <time>2019-09-14T10:35:25Z</time>
      </trkpt>
      <trkpt lat="46.432041618973017" lon="8.377212742343545">
        <ele>2021.47</ele>
        <time>2019-09-14T10:35:44Z</time>
      </trkpt>
      <trkpt lat="46.432033320888877" lon="8.377158343791962">
        <ele>2023.1800000000001</ele>
        <time>2019-09-14T10:35:55Z</time>
      </trkpt>
      <trkpt lat="46.432015467435122" lon="8.377103442326188">
        <ele>2025.2</ele>
        <time>2019-09-14T10:36:06Z</time>
      </trkpt>
      <trkpt lat="46.432019239291549" lon="8.377047451213002">
        <ele>2026.49</ele>
        <time>2019-09-14T10:36:18Z</time>
      </trkpt>
      <trkpt lat="46.432019742205739" lon="8.376973271369934">
        <ele>2028.26</ele>
        <time>2019-09-14T10:36:31Z</time>
      </trkpt>
      <trkpt lat="46.432022089138627" lon="8.376923231408">
        <ele>2029.4100000000001</ele>
        <time>2019-09-14T10:36:41Z</time>
      </trkpt>
      <trkpt lat="46.432037763297558" lon="8.376859109848738">
        <ele>2031.0999999999999</ele>
        <time>2019-09-14T10:36:52Z</time>
      </trkpt>
      <trkpt lat="46.432024268433452" lon="8.376788031309843">
        <ele>2032.3900000000001</ele>
        <time>2019-09-14T10:37:05Z</time>
      </trkpt>
      <trkpt lat="46.432004487141967" lon="8.376731034368277">
        <ele>2033.72</ele>
        <time>2019-09-14T10:37:15Z</time>
      </trkpt>
      <trkpt lat="46.431998200714588" lon="8.37663983926177">
        <ele>2035.49</ele>
        <time>2019-09-14T10:37:28Z</time>
      </trkpt>
      <trkpt lat="46.432015215978026" lon="8.376562725752592">
        <ele>2036.6600000000001</ele>
        <time>2019-09-14T10:37:40Z</time>
      </trkpt>
      <trkpt lat="46.431998955085874" lon="8.376491479575634">
        <ele>2038.46</ele>
        <time>2019-09-14T10:37:54Z</time>
      </trkpt>
      <trkpt lat="46.431995099410415" lon="8.376448983326554">
        <ele>2040.26</ele>
        <time>2019-09-14T10:38:06Z</time>
      </trkpt>
      <trkpt lat="46.431980095803738" lon="8.376355692744255">
        <ele>2041.9400000000001</ele>
        <time>2019-09-14T10:38:19Z</time>
      </trkpt>
      <trkpt lat="46.431971378624439" lon="8.376294756308198">
        <ele>2043.51</ele>
        <time>2019-09-14T10:38:31Z</time>
      </trkpt>
      <trkpt lat="46.431953022256494" lon="8.376220492646098">
        <ele>2044.97</ele>
        <time>2019-09-14T10:38:43Z</time>
      </trkpt>
      <trkpt lat="46.431922763586044" lon="8.37615410797298">
        <ele>2047.0799999999999</ele>
        <time>2019-09-14T10:38:57Z</time>
      </trkpt>
      <trkpt lat="46.431927373632789" lon="8.376098787412047">
        <ele>2048.4299999999998</ele>
        <time>2019-09-14T10:39:09Z</time>
      </trkpt>
      <trkpt lat="46.431938270106912" lon="8.376053525134921">
        <ele>2049.9400000000001</ele>
        <time>2019-09-14T10:39:21Z</time>
      </trkpt>
      <trkpt lat="46.431939527392387" lon="8.376006251201034">
        <ele>2050.8499999999999</ele>
        <time>2019-09-14T10:39:33Z</time>
      </trkpt>
      <trkpt lat="46.431955620646477" lon="8.375984961166978">
        <ele>2049.9400000000001</ele>
        <time>2019-09-14T10:39:56Z</time>
      </trkpt>
      <trkpt lat="46.431954866275191" lon="8.375988900661469">
        <ele>2051.2399999999998</ele>
        <time>2019-09-14T10:40:01Z</time>
      </trkpt>
      <trkpt lat="46.431934162974358" lon="8.375908769667149">
        <ele>2052.2399999999998</ele>
        <time>2019-09-14T10:40:13Z</time>
      </trkpt>
      <trkpt lat="46.431895270943642" lon="8.375791590660811">
        <ele>2054.4899999999998</ele>
        <time>2019-09-14T10:40:28Z</time>
      </trkpt>
      <trkpt lat="46.431881776079535" lon="8.375706765800715">
        <ele>2056.5900000000001</ele>
        <time>2019-09-14T10:40:42Z</time>
      </trkpt>
      <trkpt lat="46.431879680603743" lon="8.375613475218415">
        <ele>2058.6399999999999</ele>
        <time>2019-09-14T10:40:57Z</time>
      </trkpt>
      <trkpt lat="46.431866101920605" lon="8.375496296212077">
        <ele>2060.6700000000001</ele>
        <time>2019-09-14T10:41:12Z</time>
      </trkpt>
      <trkpt lat="46.431864676997066" lon="8.375415913760662">
        <ele>2062.3800000000001</ele>
        <time>2019-09-14T10:41:27Z</time>
      </trkpt>
      <trkpt lat="46.431853864341974" lon="8.375321198254824">
        <ele>2064.1300000000001</ele>
        <time>2019-09-14T10:41:42Z</time>
      </trkpt>
      <trkpt lat="46.43184145912528" lon="8.375231511890888">
        <ele>2065.6999999999998</ele>
        <time>2019-09-14T10:41:56Z</time>
      </trkpt>
      <trkpt lat="46.431833580136299" lon="8.375164959579706">
        <ele>2067.8400000000001</ele>
        <time>2019-09-14T10:42:08Z</time>
      </trkpt>
      <trkpt lat="46.431809943169355" lon="8.375102682039142">
        <ele>2069.4899999999998</ele>
        <time>2019-09-14T10:42:20Z</time>
      </trkpt>
      <trkpt lat="46.431780774146318" lon="8.37501022964716">
        <ele>2071.7800000000002</ele>
        <time>2019-09-14T10:42:37Z</time>
      </trkpt>
      <trkpt lat="46.431763591244817" lon="8.374904785305262">
        <ele>2073.5599999999999</ele>
        <time>2019-09-14T10:42:54Z</time>
      </trkpt>
      <trkpt lat="46.431759987026453" lon="8.374806214123964">
        <ele>2075.6799999999998</ele>
        <time>2019-09-14T10:43:09Z</time>
      </trkpt>
      <trkpt lat="46.431754203513265" lon="8.374678138643503">
        <ele>2077.7600000000002</ele>
        <time>2019-09-14T10:43:25Z</time>
      </trkpt>
      <trkpt lat="46.43174272030592" lon="8.374604545533657">
        <ele>2080.0599999999999</ele>
        <time>2019-09-14T10:43:40Z</time>
      </trkpt>
      <trkpt lat="46.431727381423116" lon="8.374518966302276">
        <ele>2082.5500000000002</ele>
        <time>2019-09-14T10:43:54Z</time>
      </trkpt>
      <trkpt lat="46.431756550446153" lon="8.374504381790757">
        <ele>2084.0300000000002</ele>
        <time>2019-09-14T10:44:06Z</time>
      </trkpt>
      <trkpt lat="46.431740876287222" lon="8.374447636306286">
        <ele>2085.9499999999998</ele>
        <time>2019-09-14T10:44:19Z</time>
      </trkpt>
      <trkpt lat="46.431721011176705" lon="8.374349651858211">
        <ele>2087.77</ele>
        <time>2019-09-14T10:44:35Z</time>
      </trkpt>
      <trkpt lat="46.431744229048491" lon="8.374315956607461">
        <ele>2089.6100000000001</ele>
        <time>2019-09-14T10:44:48Z</time>
      </trkpt>
      <trkpt lat="46.431745067238808" lon="8.374236077070236">
        <ele>2091.0900000000001</ele>
        <time>2019-09-14T10:45:01Z</time>
      </trkpt>
      <trkpt lat="46.431746911257505" lon="8.374137924984098">
        <ele>2093.1900000000001</ele>
        <time>2019-09-14T10:45:16Z</time>
      </trkpt>
      <trkpt lat="46.431738194078207" lon="8.37402175180614">
        <ele>2095.0799999999999</ele>
        <time>2019-09-14T10:45:33Z</time>
      </trkpt>
      <trkpt lat="46.431735847145319" lon="8.373990319669247">
        <ele>2095.6799999999998</ele>
        <time>2019-09-14T10:45:45Z</time>
      </trkpt>
      <trkpt lat="46.431726375594735" lon="8.37390155531466">
        <ele>2096.8200000000002</ele>
        <time>2019-09-14T10:46:00Z</time>
      </trkpt>
      <trkpt lat="46.431735344231129" lon="8.373875319957733">
        <ele>2097.25</ele>
        <time>2019-09-14T10:46:16Z</time>
      </trkpt>
      <trkpt lat="46.431752443313599" lon="8.373748082667589">
        <ele>2098.3000000000002</ele>
        <time>2019-09-14T10:46:28Z</time>
      </trkpt>
      <trkpt lat="46.431748084723949" lon="8.373706256970763">
        <ele>2098.1799999999998</ele>
        <time>2019-09-14T10:46:31Z</time>
      </trkpt>
      <trkpt lat="46.431718245148659" lon="8.373563513159752">
        <ele>2099.9200000000001</ele>
        <time>2019-09-14T10:46:45Z</time>
      </trkpt>
      <trkpt lat="46.431713635101914" lon="8.373459996655583">
        <ele>2101.6799999999998</ele>
        <time>2019-09-14T10:47:01Z</time>
      </trkpt>
      <trkpt lat="46.431709360331297" lon="8.373363940045238">
        <ele>2102.4299999999998</ele>
        <time>2019-09-14T10:47:13Z</time>
      </trkpt>
      <trkpt lat="46.431682119145989" lon="8.373250951990485">
        <ele>2104.3400000000001</ele>
        <time>2019-09-14T10:47:29Z</time>
      </trkpt>
      <trkpt lat="46.431708103045821" lon="8.373230248689652">
        <ele>2106.25</ele>
        <time>2019-09-14T10:47:41Z</time>
      </trkpt>
      <trkpt lat="46.431707181036472" lon="8.373149950057268">
        <ele>2107.2199999999998</ele>
        <time>2019-09-14T10:47:55Z</time>
      </trkpt>
      <trkpt lat="46.431700810790062" lon="8.373075602576137">
        <ele>2108.98</ele>
        <time>2019-09-14T10:48:07Z</time>
      </trkpt>
      <trkpt lat="46.431679604575038" lon="8.37302346713841">
        <ele>2110.4899999999998</ele>
        <time>2019-09-14T10:48:19Z</time>
      </trkpt>
      <trkpt lat="46.431648759171367" lon="8.372975522652268">
        <ele>2112.23</ele>
        <time>2019-09-14T10:48:33Z</time>
      </trkpt>
      <trkpt lat="46.431668289005756" lon="8.372974433004856">
        <ele>2113.5100000000002</ele>
        <time>2019-09-14T10:48:46Z</time>
      </trkpt>
      <trkpt lat="46.431668205186725" lon="8.37291500531137">
        <ele>2115.6199999999999</ele>
        <time>2019-09-14T10:48:59Z</time>
      </trkpt>
      <trkpt lat="46.431678095832467" lon="8.372894721105695">
        <ele>2116.9200000000001</ele>
        <time>2019-09-14T10:49:10Z</time>
      </trkpt>
      <trkpt lat="46.431709108874202" lon="8.3729013428092">
        <ele>2118.5</ele>
        <time>2019-09-14T10:49:23Z</time>
      </trkpt>
      <trkpt lat="46.43171195872128" lon="8.372901510447264">
        <ele>2118.77</ele>
        <time>2019-09-14T10:49:42Z</time>
      </trkpt>
      <trkpt lat="46.431702822446823" lon="8.372800005599856">
        <ele>2120.54</ele>
        <time>2019-09-14T10:49:56Z</time>
      </trkpt>
      <trkpt lat="46.43170265480876" lon="8.372717779129744">
        <ele>2122.2800000000002</ele>
        <time>2019-09-14T10:50:10Z</time>
      </trkpt>
      <trkpt lat="46.4316919259727" lon="8.372624656185508">
        <ele>2124.48</ele>
        <time>2019-09-14T10:50:24Z</time>
      </trkpt>
      <trkpt lat="46.431689998134971" lon="8.372534299269319">
        <ele>2126.25</ele>
        <time>2019-09-14T10:50:37Z</time>
      </trkpt>
      <trkpt lat="46.431681029498577" lon="8.372428687289357">
        <ele>2127.5300000000002</ele>
        <time>2019-09-14T10:50:50Z</time>
      </trkpt>
      <trkpt lat="46.431682789698243" lon="8.372300192713738">
        <ele>2129.0900000000001</ele>
        <time>2019-09-14T10:51:03Z</time>
      </trkpt>
      <trkpt lat="46.431675832718611" lon="8.372138421982527">
        <ele>2130.1900000000001</ele>
        <time>2019-09-14T10:51:18Z</time>
      </trkpt>
      <trkpt lat="46.43168312497437" lon="8.372025936841965">
        <ele>2131.3200000000002</ele>
        <time>2019-09-14T10:51:31Z</time>
      </trkpt>
      <trkpt lat="46.431683711707592" lon="8.371928287670016">
        <ele>2132.8099999999999</ele>
        <time>2019-09-14T10:51:46Z</time>
      </trkpt>
      <trkpt lat="46.431675748899579" lon="8.37181362323463">
        <ele>2134.2800000000002</ele>
        <time>2019-09-14T10:52:00Z</time>
      </trkpt>
      <trkpt lat="46.431670552119613" lon="8.371772551909089">
        <ele>2134.1700000000001</ele>
        <time>2019-09-14T10:52:04Z</time>
      </trkpt>
      <trkpt lat="46.431613219901919" lon="8.371541127562523">
        <ele>2136.02</ele>
        <time>2019-09-14T10:52:22Z</time>
      </trkpt>
      <trkpt lat="46.431585475802422" lon="8.371461667120457">
        <ele>2137.4699999999998</ele>
        <time>2019-09-14T10:52:36Z</time>
      </trkpt>
      <trkpt lat="46.431548595428467" lon="8.371347337961197">
        <ele>2139.5700000000002</ele>
        <time>2019-09-14T10:52:51Z</time>
      </trkpt>
      <trkpt lat="46.431526131927967" lon="8.371254047378898">
        <ele>2141</ele>
        <time>2019-09-14T10:53:04Z</time>
      </trkpt>
      <trkpt lat="46.43150333315134" lon="8.371157320216298">
        <ele>2143.5300000000002</ele>
        <time>2019-09-14T10:53:19Z</time>
      </trkpt>
      <trkpt lat="46.43149989657104" lon="8.371102837845683">
        <ele>2145.04</ele>
        <time>2019-09-14T10:53:32Z</time>
      </trkpt>
      <trkpt lat="46.431486736983061" lon="8.371035698801279">
        <ele>2146.7199999999998</ele>
        <time>2019-09-14T10:53:44Z</time>
      </trkpt>
      <trkpt lat="46.431443821638823" lon="8.370959674939513">
        <ele>2148.5300000000002</ele>
        <time>2019-09-14T10:54:00Z</time>
      </trkpt>
      <trkpt lat="46.431428901851177" lon="8.370910724624991">
        <ele>2150.0500000000002</ele>
        <time>2019-09-14T10:54:13Z</time>
      </trkpt>
      <trkpt lat="46.431409707292914" lon="8.370854649692774">
        <ele>2152.2199999999998</ele>
        <time>2019-09-14T10:54:29Z</time>
      </trkpt>
      <trkpt lat="46.431389758363366" lon="8.370769154280424">
        <ele>2154.4899999999998</ele>
        <time>2019-09-14T10:54:45Z</time>
      </trkpt>
      <trkpt lat="46.431375676766038" lon="8.370684497058392">
        <ele>2156.3000000000002</ele>
        <time>2019-09-14T10:55:00Z</time>
      </trkpt>
      <trkpt lat="46.431347681209445" lon="8.370596067979932">
        <ele>2158.6199999999999</ele>
        <time>2019-09-14T10:55:16Z</time>
      </trkpt>
      <trkpt lat="46.431337287649512" lon="8.370533958077431">
        <ele>2160.8400000000001</ele>
        <time>2019-09-14T10:55:29Z</time>
      </trkpt>
      <trkpt lat="46.431346088647842" lon="8.370487773790956">
        <ele>2162.4400000000001</ele>
        <time>2019-09-14T10:55:41Z</time>
      </trkpt>
      <trkpt lat="46.431320775300264" lon="8.37041225284338">
        <ele>2164.2199999999998</ele>
        <time>2019-09-14T10:55:55Z</time>
      </trkpt>
      <trkpt lat="46.431322116404772" lon="8.370341090485454">
        <ele>2165.5900000000001</ele>
        <time>2019-09-14T10:56:08Z</time>
      </trkpt>
      <trkpt lat="46.431325972080231" lon="8.370269173756242">
        <ele>2167</ele>
        <time>2019-09-14T10:56:21Z</time>
      </trkpt>
      <trkpt lat="46.431329073384404" lon="8.370222318917513">
        <ele>2168.5799999999999</ele>
        <time>2019-09-14T10:56:31Z</time>
      </trkpt>
      <trkpt lat="46.431332007050514" lon="8.370142690837383">
        <ele>2170.3800000000001</ele>
        <time>2019-09-14T10:56:45Z</time>
      </trkpt>
      <trkpt lat="46.431345753371716" lon="8.370056357234716">
        <ele>2172.0700000000002</ele>
        <time>2019-09-14T10:56:58Z</time>
      </trkpt>
      <trkpt lat="46.431358912959695" lon="8.370000282302499">
        <ele>2173.9299999999998</ele>
        <time>2019-09-14T10:57:10Z</time>
      </trkpt>
      <trkpt lat="46.431341730058193" lon="8.369899783283472">
        <ele>2174.9499999999998</ele>
        <time>2019-09-14T10:57:24Z</time>
      </trkpt>
      <trkpt lat="46.431312309578061" lon="8.369863154366612">
        <ele>2175.4099999999999</ele>
        <time>2019-09-14T10:57:35Z</time>
      </trkpt>
      <trkpt lat="46.431282889097929" lon="8.369847983121872">
        <ele>2176.02</ele>
        <time>2019-09-14T10:57:45Z</time>
      </trkpt>
      <trkpt lat="46.431261599063873" lon="8.369785370305181">
        <ele>2176.9499999999998</ele>
        <time>2019-09-14T10:57:53Z</time>
      </trkpt>
      <trkpt lat="46.431223377585411" lon="8.369653522968292">
        <ele>2176.9499999999998</ele>
        <time>2019-09-14T10:58:08Z</time>
      </trkpt>
      <trkpt lat="46.431212062016129" lon="8.369598789140582">
        <ele>2176.7199999999998</ele>
        <time>2019-09-14T10:58:20Z</time>
      </trkpt>
      <trkpt lat="46.431197980418801" lon="8.369442299008369">
        <ele>2178.3000000000002</ele>
        <time>2019-09-14T10:58:36Z</time>
      </trkpt>
      <trkpt lat="46.431211726740003" lon="8.369309781119227">
        <ele>2179.3800000000001</ele>
        <time>2019-09-14T10:58:52Z</time>
      </trkpt>
      <trkpt lat="46.431188508868217" lon="8.369170306250453">
        <ele>2180.6799999999998</ele>
        <time>2019-09-14T10:59:06Z</time>
      </trkpt>
      <trkpt lat="46.431164117529988" lon="8.369000572711229">
        <ele>2182.6500000000001</ele>
        <time>2019-09-14T10:59:22Z</time>
      </trkpt>
      <trkpt lat="46.431205524131656" lon="8.368904097005725">
        <ele>2184.46</ele>
        <time>2019-09-14T10:59:35Z</time>
      </trkpt>
      <trkpt lat="46.431214660406113" lon="8.368796808645129">
        <ele>2186.3499999999999</ele>
        <time>2019-09-14T10:59:49Z</time>
      </trkpt>
      <trkpt lat="46.431238213554025" lon="8.368683317676187">
        <ele>2188.23</ele>
        <time>2019-09-14T11:00:04Z</time>
      </trkpt>
      <trkpt lat="46.431238297373056" lon="8.368590110912919">
        <ele>2190.3600000000001</ele>
        <time>2019-09-14T11:00:19Z</time>
      </trkpt>
      <trkpt lat="46.431253803893924" lon="8.368520960211754">
        <ele>2192.2399999999998</ele>
        <time>2019-09-14T11:00:33Z</time>
      </trkpt>
      <trkpt lat="46.431236285716295" lon="8.368429848924279">
        <ele>2194.1199999999999</ele>
        <time>2019-09-14T11:00:47Z</time>
      </trkpt>
      <trkpt lat="46.431210385635495" lon="8.368367655202746">
        <ele>2195.9200000000001</ele>
        <time>2019-09-14T11:01:01Z</time>
      </trkpt>
      <trkpt lat="46.431191191077232" lon="8.368272017687559">
        <ele>2197.8299999999999</ele>
        <time>2019-09-14T11:01:15Z</time>
      </trkpt>
      <trkpt lat="46.431034449487925" lon="8.366829659789801">
        <ele>2200.71</ele>
        <time>2019-09-14T11:05:38Z</time>
      </trkpt>
      <trkpt lat="46.430876618251204" lon="8.366835946217179">
        <ele>2205.02</ele>
        <time>2019-09-14T11:05:48Z</time>
      </trkpt>
      <trkpt lat="46.430874355137348" lon="8.366833096370101">
        <ele>2205.1199999999999</ele>
        <time>2019-09-14T11:05:49Z</time>
      </trkpt>
      <trkpt lat="46.430868990719318" lon="8.366798227652907">
        <ele>2206.4499999999998</ele>
        <time>2019-09-14T11:05:53Z</time>
      </trkpt>
      <trkpt lat="46.430875780060887" lon="8.366784816607833">
        <ele>2209.79</ele>
        <time>2019-09-14T11:05:58Z</time>
      </trkpt>
      <trkpt lat="46.43087737262249" lon="8.366775512695313">
        <ele>2212.9000000000001</ele>
        <time>2019-09-14T11:06:04Z</time>
      </trkpt>
      <trkpt lat="46.430871086195111" lon="8.366769561544061">
        <ele>2215.96</ele>
        <time>2019-09-14T11:06:13Z</time>
      </trkpt>
      <trkpt lat="46.4308094792068" lon="8.366715079173446">
        <ele>2218.5700000000002</ele>
        <time>2019-09-14T11:06:27Z</time>
      </trkpt>
      <trkpt lat="46.430785255506635" lon="8.366643581539393">
        <ele>2218.6399999999999</ele>
        <time>2019-09-14T11:06:39Z</time>
      </trkpt>
      <trkpt lat="46.430779220536351" lon="8.366664703935385">
        <ele>2219.0500000000002</ele>
        <time>2019-09-14T11:06:53Z</time>
      </trkpt>
      <trkpt lat="46.430781735107303" lon="8.366689095273614">
        <ele>2220.3899999999999</ele>
        <time>2019-09-14T11:07:27Z</time>
      </trkpt>
      <trkpt lat="46.430796403437853" lon="8.366677528247237">
        <ele>2219.71</ele>
        <time>2019-09-14T11:08:16Z</time>
      </trkpt>
      <trkpt lat="46.430787267163396" lon="8.366671912372112">
        <ele>2220.1199999999999</ele>
        <time>2019-09-14T11:08:37Z</time>
      </trkpt>
      <trkpt lat="46.430772347375751" lon="8.366679288446903">
        <ele>2220.54</ele>
        <time>2019-09-14T11:09:27Z</time>
      </trkpt>
      <trkpt lat="46.43078064545989" lon="8.366689011454582">
        <ele>2220.2800000000002</ele>
        <time>2019-09-14T11:09:50Z</time>
      </trkpt>
      <trkpt lat="46.430775783956051" lon="8.366672582924366">
        <ele>2220.3200000000002</ele>
        <time>2019-09-14T11:10:51Z</time>
      </trkpt>
      <trkpt lat="46.430788021534681" lon="8.366654142737389">
        <ele>2220.6999999999998</ele>
        <time>2019-09-14T11:11:15Z</time>
      </trkpt>
      <trkpt lat="46.430772347375751" lon="8.3666449226439">
        <ele>2220.8299999999999</ele>
        <time>2019-09-14T11:11:48Z</time>
      </trkpt>
      <trkpt lat="46.430772850289941" lon="8.366641821339726">
        <ele>2220.8299999999999</ele>
        <time>2019-09-14T11:12:24Z</time>
      </trkpt>
      <trkpt lat="46.430770587176085" lon="8.366627655923367">
        <ele>2220.6300000000001</ele>
        <time>2019-09-14T11:12:42Z</time>
      </trkpt>
      <trkpt lat="46.430760947987437" lon="8.366637378931046">
        <ele>2220.6900000000001</ele>
        <time>2019-09-14T11:13:08Z</time>
      </trkpt>
      <trkpt lat="46.43077377229929" lon="8.366642072796822">
        <ele>2220.3099999999999</ele>
        <time>2019-09-14T11:13:34Z</time>
      </trkpt>
      <trkpt lat="46.430789865553379" lon="8.366668978706002">
        <ele>2220.2199999999998</ele>
        <time>2019-09-14T11:14:13Z</time>
      </trkpt>
      <trkpt lat="46.43078257329762" lon="8.366687586531043">
        <ele>2220.8600000000001</ele>
        <time>2019-09-14T11:15:25Z</time>
      </trkpt>
      <trkpt lat="46.430774191394448" lon="8.36669429205358">
        <ele>2220.46</ele>
        <time>2019-09-14T11:16:36Z</time>
      </trkpt>
      <trkpt lat="46.430766899138689" lon="8.366683814674616">
        <ele>2219.5799999999999</ele>
        <time>2019-09-14T11:17:43Z</time>
      </trkpt>
      <trkpt lat="46.430766982957721" lon="8.366670906543732">
        <ele>2220.0300000000002</ele>
        <time>2019-09-14T11:18:58Z</time>
      </trkpt>
      <trkpt lat="46.430769665166736" lon="8.36668448522687">
        <ele>2220.0700000000002</ele>
        <time>2019-09-14T11:20:07Z</time>
      </trkpt>
      <trkpt lat="46.430774442851543" lon="8.366688257083297">
        <ele>2219.8600000000001</ele>
        <time>2019-09-14T11:21:17Z</time>
      </trkpt>
      <trkpt lat="46.430764468386769" lon="8.366693621501327">
        <ele>2219.9299999999998</ele>
        <time>2019-09-14T11:22:21Z</time>
      </trkpt>
      <trkpt lat="46.430768240243196" lon="8.366687502712011">
        <ele>2220.1300000000001</ele>
        <time>2019-09-14T11:23:12Z</time>
      </trkpt>
      <trkpt lat="46.43076203763485" lon="8.366686999797821">
        <ele>2220.0300000000002</ele>
        <time>2019-09-14T11:24:10Z</time>
      </trkpt>
      <trkpt lat="46.430770335718989" lon="8.366686413064599">
        <ele>2220.8099999999999</ele>
        <time>2019-09-14T11:24:21Z</time>
      </trkpt>
      <trkpt lat="46.430773688480258" lon="8.366679875180125">
        <ele>2221.0300000000002</ele>
        <time>2019-09-14T11:24:37Z</time>
      </trkpt>
      <trkpt lat="46.430777125060558" lon="8.36668012663722">
        <ele>2221.1700000000001</ele>
        <time>2019-09-14T11:24:52Z</time>
      </trkpt>
      <trkpt lat="46.430759690701962" lon="8.366676103323698">
        <ele>2221</ele>
        <time>2019-09-14T11:25:05Z</time>
      </trkpt>
      <trkpt lat="46.430725660175085" lon="8.366624973714352">
        <ele>2219.5500000000002</ele>
        <time>2019-09-14T11:25:15Z</time>
      </trkpt>
      <trkpt lat="46.430702861398458" lon="8.366551212966442">
        <ele>2219.9400000000001</ele>
        <time>2019-09-14T11:25:26Z</time>
      </trkpt>
      <trkpt lat="46.430656928569078" lon="8.366522463038564">
        <ele>2220.25</ele>
        <time>2019-09-14T11:25:38Z</time>
      </trkpt>
      <trkpt lat="46.430599763989449" lon="8.366545848548412">
        <ele>2221.5</ele>
        <time>2019-09-14T11:25:50Z</time>
      </trkpt>
      <trkpt lat="46.430571349337697" lon="8.366519445553422">
        <ele>2222.9899999999998</ele>
        <time>2019-09-14T11:26:02Z</time>
      </trkpt>
      <trkpt lat="46.430544191971421" lon="8.366492204368115">
        <ele>2225.1199999999999</ele>
        <time>2019-09-14T11:26:13Z</time>
      </trkpt>
      <trkpt lat="46.43053044565022" lon="8.366456162184477">
        <ele>2225.7399999999998</ele>
        <time>2019-09-14T11:26:25Z</time>
      </trkpt>
      <trkpt lat="46.4305021148175" lon="8.366458341479302">
        <ele>2226.7399999999998</ele>
        <time>2019-09-14T11:26:38Z</time>
      </trkpt>
      <trkpt lat="46.430452410131693" lon="8.366464711725712">
        <ele>2228.5999999999999</ele>
        <time>2019-09-14T11:26:50Z</time>
      </trkpt>
      <trkpt lat="46.430416032671928" lon="8.366431687027216">
        <ele>2229.6199999999999</ele>
        <time>2019-09-14T11:27:02Z</time>
      </trkpt>
      <trkpt lat="46.430368255823851" lon="8.36639916524291">
        <ele>2231.3000000000002</ele>
        <time>2019-09-14T11:27:16Z</time>
      </trkpt>
      <trkpt lat="46.430363645777106" lon="8.366385418921709">
        <ele>2231.8000000000002</ele>
        <time>2019-09-14T11:27:26Z</time>
      </trkpt>
      <trkpt lat="46.430334057658911" lon="8.366307718679309">
        <ele>2232.9000000000001</ele>
        <time>2019-09-14T11:27:40Z</time>
      </trkpt>
      <trkpt lat="46.430317042395473" lon="8.366202944889665">
        <ele>2234.0999999999999</ele>
        <time>2019-09-14T11:27:54Z</time>
      </trkpt>
      <trkpt lat="46.430287035182118" lon="8.366121388971806">
        <ele>2235.3600000000001</ele>
        <time>2019-09-14T11:28:08Z</time>
      </trkpt>
      <trkpt lat="46.430255267769098" lon="8.366074282675982">
        <ele>2236.5999999999999</ele>
        <time>2019-09-14T11:28:22Z</time>
      </trkpt>
      <trkpt lat="46.430220985785127" lon="8.366063386201859">
        <ele>2237.71</ele>
        <time>2019-09-14T11:28:42Z</time>
      </trkpt>
      <trkpt lat="46.430160636082292" lon="8.366088699549437">
        <ele>2239.52</ele>
        <time>2019-09-14T11:28:57Z</time>
      </trkpt>
      <trkpt lat="46.43009995110333" lon="8.366044024005532">
        <ele>2241.1399999999999</ele>
        <time>2019-09-14T11:29:11Z</time>
      </trkpt>
      <trkpt lat="46.43003691919148" lon="8.366008484736085">
        <ele>2243</ele>
        <time>2019-09-14T11:29:27Z</time>
      </trkpt>
      <trkpt lat="46.429979586973786" lon="8.365993732586503">
        <ele>2244.75</ele>
        <time>2019-09-14T11:29:40Z</time>
      </trkpt>
      <trkpt lat="46.429927535355091" lon="8.36600479669869">
        <ele>2246.5999999999999</ele>
        <time>2019-09-14T11:29:53Z</time>
      </trkpt>
      <trkpt lat="46.429877411574125" lon="8.366012424230576">
        <ele>2248.1500000000001</ele>
        <time>2019-09-14T11:30:06Z</time>
      </trkpt>
      <trkpt lat="46.429830137640238" lon="8.366007227450609">
        <ele>2249.4200000000001</ele>
        <time>2019-09-14T11:30:19Z</time>
      </trkpt>
      <trkpt lat="46.429780349135399" lon="8.365997252985835">
        <ele>2251.4200000000001</ele>
        <time>2019-09-14T11:30:32Z</time>
      </trkpt>
      <trkpt lat="46.42971052788198" lon="8.366017788648605">
        <ele>2253.1199999999999</ele>
        <time>2019-09-14T11:30:46Z</time>
      </trkpt>
      <trkpt lat="46.429674904793501" lon="8.366006808355451">
        <ele>2254.7199999999998</ele>
        <time>2019-09-14T11:30:58Z</time>
      </trkpt>
      <trkpt lat="46.429616399109364" lon="8.365983087569475">
        <ele>2256.6900000000001</ele>
        <time>2019-09-14T11:31:13Z</time>
      </trkpt>
      <trkpt lat="46.429568538442254" lon="8.365973699837923">
        <ele>2258.5300000000002</ele>
        <time>2019-09-14T11:31:26Z</time>
      </trkpt>
      <trkpt lat="46.429517492651939" lon="8.365938328206539">
        <ele>2260</ele>
        <time>2019-09-14T11:31:40Z</time>
      </trkpt>
      <trkpt lat="46.429454125463963" lon="8.365949057042599">
        <ele>2262.23</ele>
        <time>2019-09-14T11:31:56Z</time>
      </trkpt>
      <trkpt lat="46.429398134350777" lon="8.365951906889677">
        <ele>2263.8600000000001</ele>
        <time>2019-09-14T11:32:09Z</time>
      </trkpt>
      <trkpt lat="46.429363265633583" lon="8.365880912169814">
        <ele>2265.6700000000001</ele>
        <time>2019-09-14T11:32:22Z</time>
      </trkpt>
      <trkpt lat="46.42931523732841" lon="8.36580203846097">
        <ele>2267.6500000000001</ele>
        <time>2019-09-14T11:32:35Z</time>
      </trkpt>
      <trkpt lat="46.429275004193187" lon="8.365716375410557">
        <ele>2268.8800000000001</ele>
        <time>2019-09-14T11:32:48Z</time>
      </trkpt>
      <trkpt lat="46.42924633808434" lon="8.365609003230929">
        <ele>2269.9099999999999</ele>
        <time>2019-09-14T11:33:02Z</time>
      </trkpt>
      <trkpt lat="46.429196381941438" lon="8.365529961884022">
        <ele>2271.1900000000001</ele>
        <time>2019-09-14T11:33:16Z</time>
      </trkpt>
      <trkpt lat="46.429135110229254" lon="8.365451088175178">
        <ele>2272.98</ele>
        <time>2019-09-14T11:33:32Z</time>
      </trkpt>
      <trkpt lat="46.429108371958137" lon="8.365370621904731">
        <ele>2273.9099999999999</ele>
        <time>2019-09-14T11:33:43Z</time>
      </trkpt>
      <trkpt lat="46.429061265662313" lon="8.365269619971514">
        <ele>2275.1399999999999</ele>
        <time>2019-09-14T11:33:56Z</time>
      </trkpt>
      <trkpt lat="46.429043412208557" lon="8.365129390731454">
        <ele>2276.29</ele>
        <time>2019-09-14T11:34:11Z</time>
      </trkpt>
      <trkpt lat="46.429045340046287" lon="8.3650510199368">
        <ele>2277.7800000000002</ele>
        <time>2019-09-14T11:34:23Z</time>
      </trkpt>
      <trkpt lat="46.429083477705717" lon="8.364982372149825">
        <ele>2280.5100000000002</ele>
        <time>2019-09-14T11:34:38Z</time>
      </trkpt>
      <trkpt lat="46.429078700020909" lon="8.364912802353501">
        <ele>2282.1700000000001</ele>
        <time>2019-09-14T11:34:50Z</time>
      </trkpt>
      <trkpt lat="46.429095966741443" lon="8.364827474579215">
        <ele>2284.3000000000002</ele>
        <time>2019-09-14T11:35:05Z</time>
      </trkpt>
      <trkpt lat="46.429082974791527" lon="8.364791180938482">
        <ele>2285.46</ele>
        <time>2019-09-14T11:35:19Z</time>
      </trkpt>
      <trkpt lat="46.429035281762481" lon="8.364735944196582">
        <ele>2287.1700000000001</ele>
        <time>2019-09-14T11:35:32Z</time>
      </trkpt>
      <trkpt lat="46.428979290649295" lon="8.364753630012274">
        <ele>2288.8499999999999</ele>
        <time>2019-09-14T11:35:46Z</time>
      </trkpt>
      <trkpt lat="46.428952971473336" lon="8.364708032459021">
        <ele>2290.75</ele>
        <time>2019-09-14T11:35:59Z</time>
      </trkpt>
      <trkpt lat="46.428937632590532" lon="8.364641731604934">
        <ele>2292.8899999999999</ele>
        <time>2019-09-14T11:36:13Z</time>
      </trkpt>
      <trkpt lat="46.428929418325424" lon="8.364525893703103">
        <ele>2294.3200000000002</ele>
        <time>2019-09-14T11:36:28Z</time>
      </trkpt>
      <trkpt lat="46.428888598456979" lon="8.364329924806953">
        <ele>2295.1599999999999</ele>
        <time>2019-09-14T11:36:44Z</time>
      </trkpt>
      <trkpt lat="46.428806204348803" lon="8.36420226842165">
        <ele>2295.8499999999999</ele>
        <time>2019-09-14T11:37:00Z</time>
      </trkpt>
      <trkpt lat="46.428754488006234" lon="8.364017028361559">
        <ele>2296.71</ele>
        <time>2019-09-14T11:37:17Z</time>
      </trkpt>
      <trkpt lat="46.428749458864331" lon="8.363930024206638">
        <ele>2296.8600000000001</ele>
        <time>2019-09-14T11:37:23Z</time>
      </trkpt>
      <trkpt lat="46.428686762228608" lon="8.363671693950892">
        <ele>2296.02</ele>
        <time>2019-09-14T11:37:42Z</time>
      </trkpt>
      <trkpt lat="46.428660443052649" lon="8.363565914332867">
        <ele>2296.1300000000001</ele>
        <time>2019-09-14T11:37:50Z</time>
      </trkpt>
      <trkpt lat="46.428643511608243" lon="8.363326108083129">
        <ele>2296.3600000000001</ele>
        <time>2019-09-14T11:38:08Z</time>
      </trkpt>
      <trkpt lat="46.428610403090715" lon="8.363175485283136">
        <ele>2298.1999999999998</ele>
        <time>2019-09-14T11:38:25Z</time>
      </trkpt>
      <trkpt lat="46.428591543808579" lon="8.363122344017029">
        <ele>2300.3499999999999</ele>
        <time>2019-09-14T11:38:37Z</time>
      </trkpt>
      <trkpt lat="46.428577462211251" lon="8.363058725371957">
        <ele>2302.8899999999999</ele>
        <time>2019-09-14T11:38:49Z</time>
      </trkpt>
      <trkpt lat="46.428558686748147" lon="8.362993681803346">
        <ele>2304.8600000000001</ele>
        <time>2019-09-14T11:39:03Z</time>
      </trkpt>
      <trkpt lat="46.428540833294392" lon="8.362915981560946">
        <ele>2306.9499999999998</ele>
        <time>2019-09-14T11:39:19Z</time>
      </trkpt>
      <trkpt lat="46.428527925163507" lon="8.362846579402685">
        <ele>2309.21</ele>
        <time>2019-09-14T11:39:33Z</time>
      </trkpt>
      <trkpt lat="46.428499594330788" lon="8.3627749979496">
        <ele>2311.0100000000002</ele>
        <time>2019-09-14T11:39:46Z</time>
      </trkpt>
      <trkpt lat="46.428468246012926" lon="8.362655807286501">
        <ele>2313.1199999999999</ele>
        <time>2019-09-14T11:40:05Z</time>
      </trkpt>
      <trkpt lat="46.428453074768186" lon="8.362556146457791">
        <ele>2315.5</ele>
        <time>2019-09-14T11:40:22Z</time>
      </trkpt>
      <trkpt lat="46.42842005006969" lon="8.362473584711552">
        <ele>2317.1999999999998</ele>
        <time>2019-09-14T11:40:36Z</time>
      </trkpt>
      <trkpt lat="46.428383337333798" lon="8.362382221966982">
        <ele>2319.3899999999999</ele>
        <time>2019-09-14T11:40:51Z</time>
      </trkpt>
      <trkpt lat="46.428354335948825" lon="8.362340312451124">
        <ele>2321.52</ele>
        <time>2019-09-14T11:41:04Z</time>
      </trkpt>
      <trkpt lat="46.428336231037974" lon="8.362282561138272">
        <ele>2322.4200000000001</ele>
        <time>2019-09-14T11:41:13Z</time>
      </trkpt>
      <trkpt lat="46.428276719525456" lon="8.362156664952636">
        <ele>2324.1100000000001</ele>
        <time>2019-09-14T11:41:30Z</time>
      </trkpt>
      <trkpt lat="46.428226679563522" lon="8.362063625827432">
        <ele>2325.8800000000001</ele>
        <time>2019-09-14T11:41:44Z</time>
      </trkpt>
      <trkpt lat="46.428192481398582" lon="8.361981734633446">
        <ele>2327.4899999999998</ele>
        <time>2019-09-14T11:41:57Z</time>
      </trkpt>
      <trkpt lat="46.428154008463025" lon="8.361888779327273">
        <ele>2329.3000000000002</ele>
        <time>2019-09-14T11:42:11Z</time>
      </trkpt>
      <trkpt lat="46.42811126075685" lon="8.361794734373689">
        <ele>2331.52</ele>
        <time>2019-09-14T11:42:27Z</time>
      </trkpt>
      <trkpt lat="46.4280706923455" lon="8.361723907291889">
        <ele>2333.79</ele>
        <time>2019-09-14T11:42:42Z</time>
      </trkpt>
      <trkpt lat="46.428029956296086" lon="8.361652493476868">
        <ele>2336.8800000000001</ele>
        <time>2019-09-14T11:42:56Z</time>
      </trkpt>
      <trkpt lat="46.427998188883066" lon="8.361600525677204">
        <ele>2338.5999999999999</ele>
        <time>2019-09-14T11:43:08Z</time>
      </trkpt>
      <trkpt lat="46.427971199154854" lon="8.361580660566688">
        <ele>2339.04</ele>
        <time>2019-09-14T11:43:22Z</time>
      </trkpt>
      <trkpt lat="46.427935995161533" lon="8.361505223438144">
        <ele>2340.5900000000001</ele>
        <time>2019-09-14T11:43:34Z</time>
      </trkpt>
      <trkpt lat="46.427910262718797" lon="8.361396007239819">
        <ele>2342.6599999999999</ele>
        <time>2019-09-14T11:43:52Z</time>
      </trkpt>
      <trkpt lat="46.427878998219967" lon="8.361300034448504">
        <ele>2344.7399999999998</ele>
        <time>2019-09-14T11:44:07Z</time>
      </trkpt>
      <trkpt lat="46.427870783954859" lon="8.361211437731981">
        <ele>2346.8499999999999</ele>
        <time>2019-09-14T11:44:22Z</time>
      </trkpt>
      <trkpt lat="46.427847230806947" lon="8.361137760803103">
        <ele>2349.4299999999998</ele>
        <time>2019-09-14T11:44:37Z</time>
      </trkpt>
      <trkpt lat="46.427838262170553" lon="8.361053438857198">
        <ele>2351.5300000000002</ele>
        <time>2019-09-14T11:44:50Z</time>
      </trkpt>
      <trkpt lat="46.427829964086413" lon="8.360982527956367">
        <ele>2352.1399999999999</ele>
        <time>2019-09-14T11:45:03Z</time>
      </trkpt>
      <trkpt lat="46.427828120067716" lon="8.360865097492933">
        <ele>2354.4499999999998</ele>
        <time>2019-09-14T11:45:19Z</time>
      </trkpt>
      <trkpt lat="46.427818313241005" lon="8.360723443329334">
        <ele>2356.0999999999999</ele>
        <time>2019-09-14T11:45:36Z</time>
      </trkpt>
      <trkpt lat="46.427809596061707" lon="8.360611209645867">
        <ele>2358.9099999999999</ele>
        <time>2019-09-14T11:45:53Z</time>
      </trkpt>
      <trkpt lat="46.427790652960539" lon="8.360533257946372">
        <ele>2361.27</ele>
        <time>2019-09-14T11:46:07Z</time>
      </trkpt>
      <trkpt lat="46.427774392068386" lon="8.360527725890279">
        <ele>2361.7800000000002</ele>
        <time>2019-09-14T11:46:25Z</time>
      </trkpt>
      <trkpt lat="46.427761148661375" lon="8.360443906858563">
        <ele>2363.0900000000001</ele>
        <time>2019-09-14T11:46:43Z</time>
      </trkpt>
      <trkpt lat="46.427733153104782" lon="8.360342821106315">
        <ele>2365.5500000000002</ele>
        <time>2019-09-14T11:47:01Z</time>
      </trkpt>
      <trkpt lat="46.42768856137991" lon="8.360275095328689">
        <ele>2368.3200000000002</ele>
        <time>2019-09-14T11:47:17Z</time>
      </trkpt>
      <trkpt lat="46.427653357386589" lon="8.360233856365085">
        <ele>2370.3600000000001</ele>
        <time>2019-09-14T11:47:29Z</time>
      </trkpt>
      <trkpt lat="46.427587559446692" lon="8.360133022069931">
        <ele>2371.9699999999998</ele>
        <time>2019-09-14T11:47:45Z</time>
      </trkpt>
      <trkpt lat="46.427539447322488" lon="8.359992457553744">
        <ele>2373.3200000000002</ele>
        <time>2019-09-14T11:48:02Z</time>
      </trkpt>
      <trkpt lat="46.42750533297658" lon="8.359871506690979">
        <ele>2375.5100000000002</ele>
        <time>2019-09-14T11:48:18Z</time>
      </trkpt>
      <trkpt lat="46.427467782050371" lon="8.359785927459598">
        <ele>2378.0700000000002</ele>
        <time>2019-09-14T11:48:33Z</time>
      </trkpt>
      <trkpt lat="46.427431153133512" lon="8.359704120084643">
        <ele>2380.6999999999998</ele>
        <time>2019-09-14T11:48:47Z</time>
      </trkpt>
      <trkpt lat="46.427394188940525" lon="8.359624408185482">
        <ele>2383.1300000000001</ele>
        <time>2019-09-14T11:49:04Z</time>
      </trkpt>
      <trkpt lat="46.427344148978591" lon="8.359543271362782">
        <ele>2385.3499999999999</ele>
        <time>2019-09-14T11:49:20Z</time>
      </trkpt>
      <trkpt lat="46.427310118451715" lon="8.359429026022553">
        <ele>2387.0900000000001</ele>
        <time>2019-09-14T11:49:35Z</time>
      </trkpt>
      <trkpt lat="46.4272590726614" lon="8.359320145100355">
        <ele>2388.0799999999999</ele>
        <time>2019-09-14T11:49:49Z</time>
      </trkpt>
      <trkpt lat="46.427219845354557" lon="8.359153848141432">
        <ele>2389.6199999999999</ele>
        <time>2019-09-14T11:50:07Z</time>
      </trkpt>
      <trkpt lat="46.42719604074955" lon="8.359037339687347">
        <ele>2391.7800000000002</ele>
        <time>2019-09-14T11:50:22Z</time>
      </trkpt>
      <trkpt lat="46.427163938060403" lon="8.358921501785517">
        <ele>2394.29</ele>
        <time>2019-09-14T11:50:39Z</time>
      </trkpt>
      <trkpt lat="46.42713937908411" lon="8.358804155141115">
        <ele>2397.02</ele>
        <time>2019-09-14T11:50:56Z</time>
      </trkpt>
      <trkpt lat="46.42710124142468" lon="8.358683874830604">
        <ele>2399.4000000000001</ele>
        <time>2019-09-14T11:51:14Z</time>
      </trkpt>
      <trkpt lat="46.427059667184949" lon="8.358581447973847">
        <ele>2401.0100000000002</ele>
        <time>2019-09-14T11:51:27Z</time>
      </trkpt>
      <trkpt lat="46.427031084895134" lon="8.358525792136788">
        <ele>2402.8400000000001</ele>
        <time>2019-09-14T11:51:42Z</time>
      </trkpt>
      <trkpt lat="46.427004262804985" lon="8.3584647718817">
        <ele>2403.9400000000001</ele>
        <time>2019-09-14T11:51:57Z</time>
      </trkpt>
      <trkpt lat="46.426951121538877" lon="8.358376426622272">
        <ele>2405.8000000000002</ele>
        <time>2019-09-14T11:52:11Z</time>
      </trkpt>
      <trkpt lat="46.426929412409663" lon="8.358274335041642">
        <ele>2407.7800000000002</ele>
        <time>2019-09-14T11:52:24Z</time>
      </trkpt>
      <trkpt lat="46.426893956959248" lon="8.35817358456552">
        <ele>2410.3600000000001</ele>
        <time>2019-09-14T11:52:38Z</time>
      </trkpt>
      <trkpt lat="46.426858333870769" lon="8.358062356710434">
        <ele>2411.8699999999999</ele>
        <time>2019-09-14T11:52:53Z</time>
      </trkpt>
      <trkpt lat="46.426830003038049" lon="8.357930760830641">
        <ele>2413.79</ele>
        <time>2019-09-14T11:53:09Z</time>
      </trkpt>
      <trkpt lat="46.426807958632708" lon="8.357779383659363">
        <ele>2415.8099999999999</ele>
        <time>2019-09-14T11:53:27Z</time>
      </trkpt>
      <trkpt lat="46.426795469596982" lon="8.35768349468708">
        <ele>2418.02</ele>
        <time>2019-09-14T11:53:42Z</time>
      </trkpt>
      <trkpt lat="46.426746351644397" lon="8.357604620978236">
        <ele>2420.1799999999998</ele>
        <time>2019-09-14T11:53:57Z</time>
      </trkpt>
      <trkpt lat="46.426735874265432" lon="8.357533374801278">
        <ele>2422.1900000000001</ele>
        <time>2019-09-14T11:54:09Z</time>
      </trkpt>
      <trkpt lat="46.42671768553555" lon="8.357421392574906">
        <ele>2424.1999999999998</ele>
        <time>2019-09-14T11:54:24Z</time>
      </trkpt>
      <trkpt lat="46.42671667970717" lon="8.357286108657718">
        <ele>2425.46</ele>
        <time>2019-09-14T11:54:39Z</time>
      </trkpt>
      <trkpt lat="46.426691366359591" lon="8.357137581333518">
        <ele>2426.23</ele>
        <time>2019-09-14T11:54:53Z</time>
      </trkpt>
      <trkpt lat="46.426649624481797" lon="8.35692903958261">
        <ele>2426.3600000000001</ele>
        <time>2019-09-14T11:55:10Z</time>
      </trkpt>
      <trkpt lat="46.426622718572617" lon="8.356760060414672">
        <ele>2427.21</ele>
        <time>2019-09-14T11:55:25Z</time>
      </trkpt>
      <trkpt lat="46.426589861512184" lon="8.356610527262092">
        <ele>2428.6599999999999</ele>
        <time>2019-09-14T11:55:40Z</time>
      </trkpt>
      <trkpt lat="46.426567146554589" lon="8.356445319950581">
        <ele>2429.04</ele>
        <time>2019-09-14T11:55:55Z</time>
      </trkpt>
      <trkpt lat="46.426555495709181" lon="8.356392849236727">
        <ele>2429.6399999999999</ele>
        <time>2019-09-14T11:56:10Z</time>
      </trkpt>
      <trkpt lat="46.426517944782972" lon="8.356263097375631">
        <ele>2431.1900000000001</ele>
        <time>2019-09-14T11:56:25Z</time>
      </trkpt>
      <trkpt lat="46.426475867629051" lon="8.356116078794003">
        <ele>2433.5100000000002</ele>
        <time>2019-09-14T11:56:43Z</time>
      </trkpt>
      <trkpt lat="46.426474023610353" lon="8.356014741584659">
        <ele>2435.9200000000001</ele>
        <time>2019-09-14T11:56:57Z</time>
      </trkpt>
      <trkpt lat="46.426446195691824" lon="8.355880798771977">
        <ele>2437.73</ele>
        <time>2019-09-14T11:57:14Z</time>
      </trkpt>
      <trkpt lat="46.426398167386651" lon="8.355742748826742">
        <ele>2439.9299999999998</ele>
        <time>2019-09-14T11:57:32Z</time>
      </trkpt>
      <trkpt lat="46.426339074969292" lon="8.355547618120909">
        <ele>2439.73</ele>
        <time>2019-09-14T11:57:50Z</time>
      </trkpt>
      <trkpt lat="46.426327591761947" lon="8.355378219857812">
        <ele>2440.6300000000001</ele>
        <time>2019-09-14T11:58:05Z</time>
      </trkpt>
      <trkpt lat="46.426327005028725" lon="8.355252156034112">
        <ele>2442.9699999999998</ele>
        <time>2019-09-14T11:58:20Z</time>
      </trkpt>
      <trkpt lat="46.426291298121214" lon="8.355126678943634">
        <ele>2445.6399999999999</ele>
        <time>2019-09-14T11:58:36Z</time>
      </trkpt>
      <trkpt lat="46.426266487687826" lon="8.354975888505578">
        <ele>2447.6199999999999</ele>
        <time>2019-09-14T11:58:53Z</time>
      </trkpt>
      <trkpt lat="46.426248969510198" lon="8.354919394478202">
        <ele>2449.1500000000001</ele>
        <time>2019-09-14T11:59:07Z</time>
      </trkpt>
      <trkpt lat="46.426234552636743" lon="8.354903385043144">
        <ele>2449.9499999999998</ele>
        <time>2019-09-14T11:59:21Z</time>
      </trkpt>
      <trkpt lat="46.426224661991" lon="8.354910342022777">
        <ele>2450.3800000000001</ele>
        <time>2019-09-14T11:59:40Z</time>
      </trkpt>
      <trkpt lat="46.426209323108196" lon="8.354867678135634">
        <ele>2451.0300000000002</ele>
        <time>2019-09-14T11:59:55Z</time>
      </trkpt>
      <trkpt lat="46.426102202385664" lon="8.354791570454836">
        <ele>2452.4699999999998</ele>
        <time>2019-09-14T12:00:11Z</time>
      </trkpt>
      <trkpt lat="46.425950322300196" lon="8.354695262387395">
        <ele>2452.9499999999998</ele>
        <time>2019-09-14T12:00:28Z</time>
      </trkpt>
      <trkpt lat="46.425836747512221" lon="8.35454254411161">
        <ele>2453.04</ele>
        <time>2019-09-14T12:00:43Z</time>
      </trkpt>
      <trkpt lat="46.42577170394361" lon="8.354341965168715">
        <ele>2454.7800000000002</ele>
        <time>2019-09-14T12:01:00Z</time>
      </trkpt>
      <trkpt lat="46.425710767507553" lon="8.354132920503616">
        <ele>2455.5799999999999</ele>
        <time>2019-09-14T12:01:17Z</time>
      </trkpt>
      <trkpt lat="46.425632648169994" lon="8.353971568867564">
        <ele>2455.6399999999999</ele>
        <time>2019-09-14T12:01:31Z</time>
      </trkpt>
      <trkpt lat="46.425547990947962" lon="8.353794710710645">
        <ele>2456.8200000000002</ele>
        <time>2019-09-14T12:01:47Z</time>
      </trkpt>
      <trkpt lat="46.425507757812738" lon="8.353651883080602">
        <ele>2457.8200000000002</ele>
        <time>2019-09-14T12:02:00Z</time>
      </trkpt>
      <trkpt lat="46.425446905195713" lon="8.353481981903315">
        <ele>2458.6700000000001</ele>
        <time>2019-09-14T12:02:15Z</time>
      </trkpt>
      <trkpt lat="46.425438523292542" lon="8.353434288874269">
        <ele>2459.0799999999999</ele>
        <time>2019-09-14T12:02:19Z</time>
      </trkpt>
      <trkpt lat="46.425370462238789" lon="8.35326530970633">
        <ele>2460.5700000000002</ele>
        <time>2019-09-14T12:02:37Z</time>
      </trkpt>
      <trkpt lat="46.425277590751648" lon="8.353174701333046">
        <ele>2462.6900000000001</ele>
        <time>2019-09-14T12:02:53Z</time>
      </trkpt>
      <trkpt lat="46.425203243270516" lon="8.35307227447629">
        <ele>2464.3800000000001</ele>
        <time>2019-09-14T12:03:08Z</time>
      </trkpt>
      <trkpt lat="46.425110623240471" lon="8.352982336655259">
        <ele>2466.46</ele>
        <time>2019-09-14T12:03:25Z</time>
      </trkpt>
      <trkpt lat="46.425060667097569" lon="8.352925088256598">
        <ele>2468.54</ele>
        <time>2019-09-14T12:03:39Z</time>
      </trkpt>
      <trkpt lat="46.424998892471194" lon="8.352837581187487">
        <ele>2469.9699999999998</ele>
        <time>2019-09-14T12:03:52Z</time>
      </trkpt>
      <trkpt lat="46.424907948821783" lon="8.352736663073301">
        <ele>2471.3899999999999</ele>
        <time>2019-09-14T12:04:08Z</time>
      </trkpt>
      <trkpt lat="46.4248604234308" lon="8.352691736072302">
        <ele>2470.9699999999998</ele>
        <time>2019-09-14T12:04:15Z</time>
      </trkpt>
      <trkpt lat="46.424781968817115" lon="8.352576233446598">
        <ele>2472.3000000000002</ele>
        <time>2019-09-14T12:04:30Z</time>
      </trkpt>
      <trkpt lat="46.424734946340322" lon="8.352512028068304">
        <ele>2475.4899999999998</ele>
        <time>2019-09-14T12:04:44Z</time>
      </trkpt>
      <trkpt lat="46.424707537516952" lon="8.352452181279659">
        <ele>2478.0500000000002</ele>
        <time>2019-09-14T12:04:57Z</time>
      </trkpt>
      <trkpt lat="46.424676524475217" lon="8.352368948981166">
        <ele>2480</ele>
        <time>2019-09-14T12:05:11Z</time>
      </trkpt>
      <trkpt lat="46.424643415957689" lon="8.352421084418893">
        <ele>2482.5700000000002</ele>
        <time>2019-09-14T12:05:25Z</time>
      </trkpt>
      <trkpt lat="46.424600416794419" lon="8.352381521835923">
        <ele>2484.3600000000001</ele>
        <time>2019-09-14T12:05:38Z</time>
      </trkpt>
      <trkpt lat="46.424516178667545" lon="8.352311616763473">
        <ele>2486.2600000000002</ele>
        <time>2019-09-14T12:05:54Z</time>
      </trkpt>
      <trkpt lat="46.424443088471889" lon="8.352277418598533">
        <ele>2488.6300000000001</ele>
        <time>2019-09-14T12:06:10Z</time>
      </trkpt>
      <trkpt lat="46.424379972741008" lon="8.352221762761474">
        <ele>2490.5799999999999</ele>
        <time>2019-09-14T12:06:24Z</time>
      </trkpt>
      <trkpt lat="46.424315264448524" lon="8.352199802175164">
        <ele>2492.5900000000001</ele>
        <time>2019-09-14T12:06:39Z</time>
      </trkpt>
      <trkpt lat="46.424251142889261" lon="8.352096956223249">
        <ele>2494.5599999999999</ele>
        <time>2019-09-14T12:06:56Z</time>
      </trkpt>
      <trkpt lat="46.424197582527995" lon="8.351938119158149">
        <ele>2495.0700000000002</ele>
        <time>2019-09-14T12:07:12Z</time>
      </trkpt>
      <trkpt lat="46.424141256138682" lon="8.35179696790874">
        <ele>2495.71</ele>
        <time>2019-09-14T12:07:26Z</time>
      </trkpt>
      <trkpt lat="46.424081409350038" lon="8.351663947105408">
        <ele>2497.4899999999998</ele>
        <time>2019-09-14T12:07:41Z</time>
      </trkpt>
      <trkpt lat="46.424016952514648" lon="8.351535871624947">
        <ele>2499.1500000000001</ele>
        <time>2019-09-14T12:07:56Z</time>
      </trkpt>
      <trkpt lat="46.423974456265569" lon="8.351470408961177">
        <ele>2500.4699999999998</ele>
        <time>2019-09-14T12:08:08Z</time>
      </trkpt>
      <trkpt lat="46.423955513164401" lon="8.351453561335802">
        <ele>2500.6999999999998</ele>
        <time>2019-09-14T12:08:11Z</time>
      </trkpt>
      <trkpt lat="46.423930451273918" lon="8.351432522758842">
        <ele>2500.8600000000001</ele>
        <time>2019-09-14T12:08:14Z</time>
      </trkpt>
      <trkpt lat="46.423822240903974" lon="8.35125801153481">
        <ele>2500.9400000000001</ele>
        <time>2019-09-14T12:08:31Z</time>
      </trkpt>
      <trkpt lat="46.423721071332693" lon="8.35108894854784">
        <ele>2500.8899999999999</ele>
        <time>2019-09-14T12:08:47Z</time>
      </trkpt>
      <trkpt lat="46.423632809892297" lon="8.350958274677396">
        <ele>2500.98</ele>
        <time>2019-09-14T12:09:01Z</time>
      </trkpt>
      <trkpt lat="46.423585619777441" lon="8.350910414010286">
        <ele>2500.8200000000002</ele>
        <time>2019-09-14T12:09:07Z</time>
      </trkpt>
      <trkpt lat="46.423497693613172" lon="8.350857943296433">
        <ele>2500.9699999999998</ele>
        <time>2019-09-14T12:09:20Z</time>
      </trkpt>
      <trkpt lat="46.423481684178114" lon="8.350851656869054">
        <ele>2501.0500000000002</ele>
        <time>2019-09-14T12:09:22Z</time>
      </trkpt>
      <trkpt lat="46.423420747742057" lon="8.35080698132515">
        <ele>2501.1500000000001</ele>
        <time>2019-09-14T12:09:33Z</time>
      </trkpt>
      <trkpt lat="46.423383532091975" lon="8.35079625248909">
        <ele>2501.1300000000001</ele>
        <time>2019-09-14T12:09:37Z</time>
      </trkpt>
      <trkpt lat="46.423255288973451" lon="8.350722240284085">
        <ele>2501.0100000000002</ele>
        <time>2019-09-14T12:09:53Z</time>
      </trkpt>
      <trkpt lat="46.423251265659928" lon="8.3507180493325">
        <ele>2501.25</ele>
        <time>2019-09-14T12:10:11Z</time>
      </trkpt>
      <trkpt lat="46.423228215426207" lon="8.350802455097437">
        <ele>2501.6399999999999</ele>
        <time>2019-09-14T12:10:22Z</time>
      </trkpt>
      <trkpt lat="46.423195609822869" lon="8.350871270522475">
        <ele>2501.8299999999999</ele>
        <time>2019-09-14T12:10:28Z</time>
      </trkpt>
      <trkpt lat="46.423150599002838" lon="8.351000435650349">
        <ele>2502.7199999999998</ele>
        <time>2019-09-14T12:10:41Z</time>
      </trkpt>
      <trkpt lat="46.423180270940065" lon="8.351091127842665">
        <ele>2504.6599999999999</ele>
        <time>2019-09-14T12:10:54Z</time>
      </trkpt>
      <trkpt lat="46.42323475331068" lon="8.35108014754951">
        <ele>2506.8499999999999</ele>
        <time>2019-09-14T12:11:06Z</time>
      </trkpt>
      <trkpt lat="46.423301976174116" lon="8.351058773696423">
        <ele>2508.9099999999999</ele>
        <time>2019-09-14T12:11:22Z</time>
      </trkpt>
      <trkpt lat="46.42329485155642" lon="8.351108562201262">
        <ele>2510.4499999999998</ele>
        <time>2019-09-14T12:11:39Z</time>
      </trkpt>
      <trkpt lat="46.423290576785803" lon="8.351112669333816">
        <ele>2510.9099999999999</ele>
        <time>2019-09-14T12:11:50Z</time>
      </trkpt>
      <trkpt lat="46.423290660604835" lon="8.351115519180894">
        <ele>2509.6500000000001</ele>
        <time>2019-09-14T12:12:02Z</time>
      </trkpt>
      <trkpt lat="46.42328261397779" lon="8.351106131449342">
        <ele>2509.4400000000001</ele>
        <time>2019-09-14T12:12:26Z</time>
      </trkpt>
      <trkpt lat="46.423281943425536" lon="8.351123733446002">
        <ele>2509.6500000000001</ele>
        <time>2019-09-14T12:12:55Z</time>
      </trkpt>
      <trkpt lat="46.423281524330378" lon="8.351135971024633">
        <ele>2509.3600000000001</ele>
        <time>2019-09-14T12:13:58Z</time>
      </trkpt>
      <trkpt lat="46.423290995880961" lon="8.351124068722129">
        <ele>2509.6700000000001</ele>
        <time>2019-09-14T12:15:04Z</time>
      </trkpt>
      <trkpt lat="46.423286134377122" lon="8.351118033751845">
        <ele>2510.1100000000001</ele>
        <time>2019-09-14T12:16:07Z</time>
      </trkpt>
      <trkpt lat="46.423281356692314" lon="8.351125745102763">
        <ele>2510.1900000000001</ele>
        <time>2019-09-14T12:17:01Z</time>
      </trkpt>
      <trkpt lat="46.423286385834217" lon="8.351118536666036">
        <ele>2510.9099999999999</ele>
        <time>2019-09-14T12:17:13Z</time>
      </trkpt>
      <trkpt lat="46.423302395269275" lon="8.351095821708441">
        <ele>2511.3400000000001</ele>
        <time>2019-09-14T12:17:28Z</time>
      </trkpt>
      <trkpt lat="46.423325361683965" lon="8.351132953539491">
        <ele>2512.8899999999999</ele>
        <time>2019-09-14T12:17:40Z</time>
      </trkpt>
      <trkpt lat="46.42334514297545" lon="8.351249964907765">
        <ele>2514.73</ele>
        <time>2019-09-14T12:17:54Z</time>
      </trkpt>
      <trkpt lat="46.423314549028873" lon="8.351373178884387">
        <ele>2514.8000000000002</ele>
        <time>2019-09-14T12:18:06Z</time>
      </trkpt>
      <trkpt lat="46.423304993659258" lon="8.351411065086722">
        <ele>2514.71</ele>
        <time>2019-09-14T12:18:09Z</time>
      </trkpt>
      <trkpt lat="46.42327431589365" lon="8.351561771705747">
        <ele>2514.9200000000001</ele>
        <time>2019-09-14T12:18:23Z</time>
      </trkpt>
      <trkpt lat="46.423280769959092" lon="8.351689847186208">
        <ele>2516.0300000000002</ele>
        <time>2019-09-14T12:18:36Z</time>
      </trkpt>
      <trkpt lat="46.423278171569109" lon="8.351786239072681">
        <ele>2519.1300000000001</ele>
        <time>2019-09-14T12:18:51Z</time>
      </trkpt>
      <trkpt lat="46.423281272873282" lon="8.351865028962493">
        <ele>2521.7800000000002</ele>
        <time>2019-09-14T12:19:06Z</time>
      </trkpt>
      <trkpt lat="46.423299964517355" lon="8.35198019631207">
        <ele>2524.9400000000001</ele>
        <time>2019-09-14T12:19:24Z</time>
      </trkpt>
      <trkpt lat="46.423287140205503" lon="8.352043312042952">
        <ele>2527.7800000000002</ele>
        <time>2019-09-14T12:19:40Z</time>
      </trkpt>
      <trkpt lat="46.423229053616524" lon="8.351992852985859">
        <ele>2529.0500000000002</ele>
        <time>2019-09-14T12:19:53Z</time>
      </trkpt>
      <trkpt lat="46.423170464113355" lon="8.351999390870333">
        <ele>2530.77</ele>
        <time>2019-09-14T12:20:08Z</time>
      </trkpt>
      <trkpt lat="46.423134254291654" lon="8.352028056979179">
        <ele>2533.0100000000002</ele>
        <time>2019-09-14T12:20:21Z</time>
      </trkpt>
      <trkpt lat="46.423080610111356" lon="8.352063847705722">
        <ele>2535.8600000000001</ele>
        <time>2019-09-14T12:20:39Z</time>
      </trkpt>
      <trkpt lat="46.423055799677968" lon="8.352088490501046">
        <ele>2536.0300000000002</ele>
        <time>2019-09-14T12:20:55Z</time>
      </trkpt>
      <trkpt lat="46.423031156882644" lon="8.352179434150457">
        <ele>2537.8800000000001</ele>
        <time>2019-09-14T12:21:08Z</time>
      </trkpt>
      <trkpt lat="46.42296158708632" lon="8.352194605395198">
        <ele>2539.3499999999999</ele>
        <time>2019-09-14T12:21:20Z</time>
      </trkpt>
      <trkpt lat="46.422894531860948" lon="8.35216979496181">
        <ele>2541.8699999999999</ele>
        <time>2019-09-14T12:21:34Z</time>
      </trkpt>
      <trkpt lat="46.422797972336411" lon="8.352162921801209">
        <ele>2544.96</ele>
        <time>2019-09-14T12:21:53Z</time>
      </trkpt>
      <trkpt lat="46.422750949859619" lon="8.352173818275333">
        <ele>2546.8299999999999</ele>
        <time>2019-09-14T12:22:05Z</time>
      </trkpt>
      <trkpt lat="46.422689342871308" lon="8.352198461070657">
        <ele>2549.25</ele>
        <time>2019-09-14T12:22:19Z</time>
      </trkpt>
      <trkpt lat="46.422621952369809" lon="8.352197874337435">
        <ele>2551.1399999999999</ele>
        <time>2019-09-14T12:22:32Z</time>
      </trkpt>
      <trkpt lat="46.422556573525071" lon="8.352227881550789">
        <ele>2553.8800000000001</ele>
        <time>2019-09-14T12:22:47Z</time>
      </trkpt>
      <trkpt lat="46.422498067840934" lon="8.352241376414895">
        <ele>2555.9099999999999</ele>
        <time>2019-09-14T12:23:01Z</time>
      </trkpt>
      <trkpt lat="46.422466300427914" lon="8.352295272052288">
        <ele>2557.8499999999999</ele>
        <time>2019-09-14T12:23:14Z</time>
      </trkpt>
      <trkpt lat="46.422396311536431" lon="8.352319160476327">
        <ele>2559.46</ele>
        <time>2019-09-14T12:23:28Z</time>
      </trkpt>
      <trkpt lat="46.422364041209221" lon="8.352391328662634">
        <ele>2561.96</ele>
        <time>2019-09-14T12:23:42Z</time>
      </trkpt>
      <trkpt lat="46.422297321259975" lon="8.352390741929412">
        <ele>2564.1199999999999</ele>
        <time>2019-09-14T12:23:56Z</time>
      </trkpt>
      <trkpt lat="46.422246862202883" lon="8.352344138547778">
        <ele>2564.52</ele>
        <time>2019-09-14T12:24:09Z</time>
      </trkpt>
      <trkpt lat="46.422219034284353" lon="8.352325949817896">
        <ele>2564.8400000000001</ele>
        <time>2019-09-14T12:24:26Z</time>
      </trkpt>
      <trkpt lat="46.422210903838277" lon="8.352323854342103">
        <ele>2564.8200000000002</ele>
        <time>2019-09-14T12:24:27Z</time>
      </trkpt>
      <trkpt lat="46.422064388170838" lon="8.352309940382838">
        <ele>2564.8499999999999</ele>
        <time>2019-09-14T12:24:42Z</time>
      </trkpt>
      <trkpt lat="46.421905132010579" lon="8.352325865998864">
        <ele>2564.8600000000001</ele>
        <time>2019-09-14T12:24:58Z</time>
      </trkpt>
      <trkpt lat="46.421777978539467" lon="8.352314801886678">
        <ele>2564.9200000000001</ele>
        <time>2019-09-14T12:25:11Z</time>
      </trkpt>
      <trkpt lat="46.421616291627288" lon="8.352371547371149">
        <ele>2565</ele>
        <time>2019-09-14T12:25:28Z</time>
      </trkpt>
      <trkpt lat="46.421458711847663" lon="8.352488558739424">
        <ele>2564.9499999999998</ele>
        <time>2019-09-14T12:25:46Z</time>
      </trkpt>
      <trkpt lat="46.421305742114782" lon="8.352605067193508">
        <ele>2565.23</ele>
        <time>2019-09-14T12:26:03Z</time>
      </trkpt>
      <trkpt lat="46.421147240325809" lon="8.352716881781817">
        <ele>2565.3699999999999</ele>
        <time>2019-09-14T12:26:20Z</time>
      </trkpt>
      <trkpt lat="46.420984631404281" lon="8.352809166535735">
        <ele>2565.48</ele>
        <time>2019-09-14T12:26:37Z</time>
      </trkpt>
      <trkpt lat="46.420851275324821" lon="8.352870522066951">
        <ele>2565.4400000000001</ele>
        <time>2019-09-14T12:26:51Z</time>
      </trkpt>
      <trkpt lat="46.420699479058385" lon="8.352955849841237">
        <ele>2565.6100000000001</ele>
        <time>2019-09-14T12:27:08Z</time>
      </trkpt>
      <trkpt lat="46.420651953667402" lon="8.352987533435226">
        <ele>2566.1199999999999</ele>
        <time>2019-09-14T12:27:23Z</time>
      </trkpt>
      <trkpt lat="46.420673076063395" lon="8.353024246171117">
        <ele>2566.0100000000002</ele>
        <time>2019-09-14T12:27:43Z</time>
      </trkpt>
      <trkpt lat="46.420663520693779" lon="8.35301267914474">
        <ele>2566.02</ele>
        <time>2019-09-14T12:28:04Z</time>
      </trkpt>
      <trkpt lat="46.420664275065064" lon="8.353028185665608">
        <ele>2566</ele>
        <time>2019-09-14T12:28:26Z</time>
      </trkpt>
      <trkpt lat="46.420664358884096" lon="8.353028101846576">
        <ele>2565.7399999999998</ele>
        <time>2019-09-14T12:28:52Z</time>
      </trkpt>
      <trkpt lat="46.420650025829673" lon="8.353027515113354">
        <ele>2565.77</ele>
        <time>2019-09-14T12:29:06Z</time>
      </trkpt>
      <trkpt lat="46.420569643378258" lon="8.353094905614853">
        <ele>2565.8600000000001</ele>
        <time>2019-09-14T12:29:19Z</time>
      </trkpt>
      <trkpt lat="46.420526644214988" lon="8.353140000253916">
        <ele>2565.6500000000001</ele>
        <time>2019-09-14T12:29:32Z</time>
      </trkpt>
      <trkpt lat="46.420517927035689" lon="8.353149807080627">
        <ele>2565.6799999999998</ele>
        <time>2019-09-14T12:29:42Z</time>
      </trkpt>
      <trkpt lat="46.420552460476756" lon="8.353241002187133">
        <ele>2565.96</ele>
        <time>2019-09-14T12:30:01Z</time>
      </trkpt>
      <trkpt lat="46.420482052490115" lon="8.353119716048241">
        <ele>2565.9000000000001</ele>
        <time>2019-09-14T12:30:28Z</time>
      </trkpt>
    </trkseg>
  </trk>

</gpx>